<?xml version="1.0" encoding="UTF-8" standalone="no" ?>
<gpx xmlns="http://www.topografix.com/GPX/1/1" xmlns:xsi="http://www.w3.org/2001/XMLSchema-instance" xsi:schemaLocation="http://www.topografix.com/GPX/1/1 http://www.topografix.com/GPX/1/1/gpx.xsd" version="1.1" creator="VisuGPX - https://www.visugpx.com">
  <metadata>
    <name>TAHITI - VTT - Bora Bora - Tour de l'île en passant par les canons</name>
    <desc><![CDATA[VTT de location, soleil et chaleur au rendez-vous]]></desc>
  </metadata>
  <wpt lat="-16.48885" lon="-151.75503">
    <ele>13.584351</ele>
    <name><![CDATA[002]]></name>
    <desc><![CDATA[15-MAI-12 14:00:05]]></desc>
  </wpt>
  <wpt lat="-16.54498" lon="-151.73446">
    <ele>9.498657</ele>
    <name><![CDATA[Pension RoberT]]></name>
    <desc><![CDATA[15-MAI-12 11:31:31]]></desc>
  </wpt>
  <wpt lat="-16.49584" lon="-151.7586">
    <ele>73.185547</ele>
    <name><![CDATA[WWII Cannons]]></name>
  </wpt>
  <trk>
    <name><![CDATA[ACTIVE LOG 010]]></name>
    <trkseg>
      <trkpt lat="-16.54091" lon="-151.73681">
        <ele>10.231201</ele>
        <time>2012-05-15T23:20:26Z</time>
      </trkpt>
      <trkpt lat="-16.54091" lon="-151.73681">
        <ele>10.231201</ele>
        <time>2012-05-15T23:20:27Z</time>
      </trkpt>
      <trkpt lat="-16.54091" lon="-151.73681">
        <ele>9.269897</ele>
        <time>2012-05-15T23:20:28Z</time>
      </trkpt>
      <trkpt lat="-16.54094" lon="-151.7368">
        <ele>8.789185</ele>
        <time>2012-05-15T23:21:18Z</time>
      </trkpt>
      <trkpt lat="-16.54093" lon="-151.7368">
        <ele>10.231201</ele>
        <time>2012-05-15T23:21:35Z</time>
      </trkpt>
      <trkpt lat="-16.54093" lon="-151.7368">
        <ele>9.75061</ele>
        <time>2012-05-15T23:21:36Z</time>
      </trkpt>
      <trkpt lat="-16.541" lon="-151.73683">
        <ele>10.231201</ele>
        <time>2012-05-15T23:21:41Z</time>
      </trkpt>
      <trkpt lat="-16.54113" lon="-151.73721">
        <ele>10.711792</ele>
        <time>2012-05-15T23:21:56Z</time>
      </trkpt>
      <trkpt lat="-16.541" lon="-151.7377">
        <ele>10.231201</ele>
        <time>2012-05-15T23:22:12Z</time>
      </trkpt>
      <trkpt lat="-16.54068" lon="-151.73808">
        <ele>10.231201</ele>
        <time>2012-05-15T23:22:27Z</time>
      </trkpt>
      <trkpt lat="-16.54021" lon="-151.73809">
        <ele>9.75061</ele>
        <time>2012-05-15T23:22:40Z</time>
      </trkpt>
      <trkpt lat="-16.53972" lon="-151.73814">
        <ele>9.75061</ele>
        <time>2012-05-15T23:22:55Z</time>
      </trkpt>
      <trkpt lat="-16.53915" lon="-151.73834">
        <ele>9.75061</ele>
        <time>2012-05-15T23:23:12Z</time>
      </trkpt>
      <trkpt lat="-16.53835" lon="-151.73866">
        <ele>8.789185</ele>
        <time>2012-05-15T23:23:35Z</time>
      </trkpt>
      <trkpt lat="-16.53769" lon="-151.73907">
        <ele>9.269897</ele>
        <time>2012-05-15T23:23:55Z</time>
      </trkpt>
      <trkpt lat="-16.53698" lon="-151.73959">
        <ele>8.789185</ele>
        <time>2012-05-15T23:24:17Z</time>
      </trkpt>
      <trkpt lat="-16.53626" lon="-151.74009">
        <ele>9.269897</ele>
        <time>2012-05-15T23:24:38Z</time>
      </trkpt>
      <trkpt lat="-16.53572" lon="-151.74064">
        <ele>8.789185</ele>
        <time>2012-05-15T23:24:57Z</time>
      </trkpt>
      <trkpt lat="-16.53538" lon="-151.7412">
        <ele>8.308594</ele>
        <time>2012-05-15T23:25:13Z</time>
      </trkpt>
      <trkpt lat="-16.53515" lon="-151.74201">
        <ele>8.789185</ele>
        <time>2012-05-15T23:25:33Z</time>
      </trkpt>
      <trkpt lat="-16.53511" lon="-151.74301">
        <ele>8.308594</ele>
        <time>2012-05-15T23:25:57Z</time>
      </trkpt>
      <trkpt lat="-16.53525" lon="-151.74369">
        <ele>8.789185</ele>
        <time>2012-05-15T23:26:14Z</time>
      </trkpt>
      <trkpt lat="-16.53546" lon="-151.7444">
        <ele>9.269897</ele>
        <time>2012-05-15T23:26:33Z</time>
      </trkpt>
      <trkpt lat="-16.53567" lon="-151.74508">
        <ele>8.789185</ele>
        <time>2012-05-15T23:26:50Z</time>
      </trkpt>
      <trkpt lat="-16.53565" lon="-151.74587">
        <ele>9.75061</ele>
        <time>2012-05-15T23:27:08Z</time>
      </trkpt>
      <trkpt lat="-16.53555" lon="-151.74643">
        <ele>11.673218</ele>
        <time>2012-05-15T23:27:23Z</time>
      </trkpt>
      <trkpt lat="-16.53539" lon="-151.74651">
        <ele>10.711792</ele>
        <time>2012-05-15T23:27:27Z</time>
      </trkpt>
      <trkpt lat="-16.53436" lon="-151.74658">
        <ele>8.308594</ele>
        <time>2012-05-15T23:27:45Z</time>
      </trkpt>
      <trkpt lat="-16.53346" lon="-151.74647">
        <ele>8.308594</ele>
        <time>2012-05-15T23:28:03Z</time>
      </trkpt>
      <trkpt lat="-16.53321" lon="-151.74645">
        <ele>9.269897</ele>
        <time>2012-05-15T23:28:08Z</time>
      </trkpt>
      <trkpt lat="-16.53283" lon="-151.74643">
        <ele>8.308594</ele>
        <time>2012-05-15T23:28:17Z</time>
      </trkpt>
      <trkpt lat="-16.53286" lon="-151.74657">
        <ele>9.269897</ele>
        <time>2012-05-15T23:28:27Z</time>
      </trkpt>
      <trkpt lat="-16.53288" lon="-151.74658">
        <ele>8.789185</ele>
        <time>2012-05-15T23:28:28Z</time>
      </trkpt>
      <trkpt lat="-16.53296" lon="-151.74662">
        <ele>9.75061</ele>
        <time>2012-05-15T23:28:44Z</time>
      </trkpt>
      <trkpt lat="-16.53296" lon="-151.74663">
        <ele>9.269897</ele>
        <time>2012-05-15T23:28:59Z</time>
      </trkpt>
      <trkpt lat="-16.53296" lon="-151.74663">
        <ele>9.269897</ele>
        <time>2012-05-15T23:29:00Z</time>
      </trkpt>
      <trkpt lat="-16.53296" lon="-151.74669">
        <ele>8.789185</ele>
        <time>2012-05-15T23:29:16Z</time>
      </trkpt>
      <trkpt lat="-16.53296" lon="-151.74668">
        <ele>8.789185</ele>
        <time>2012-05-15T23:29:17Z</time>
      </trkpt>
      <trkpt lat="-16.53293" lon="-151.74664">
        <ele>8.789185</ele>
        <time>2012-05-15T23:29:31Z</time>
      </trkpt>
      <trkpt lat="-16.53294" lon="-151.74663">
        <ele>8.308594</ele>
        <time>2012-05-15T23:29:46Z</time>
      </trkpt>
      <trkpt lat="-16.53296" lon="-151.74664">
        <ele>7.827881</ele>
        <time>2012-05-15T23:30:05Z</time>
      </trkpt>
      <trkpt lat="-16.53294" lon="-151.74659">
        <ele>8.308594</ele>
        <time>2012-05-15T23:30:38Z</time>
      </trkpt>
      <trkpt lat="-16.53284" lon="-151.74655">
        <ele>7.827881</ele>
        <time>2012-05-15T23:30:46Z</time>
      </trkpt>
      <trkpt lat="-16.5328" lon="-151.74651">
        <ele>8.308594</ele>
        <time>2012-05-15T23:30:58Z</time>
      </trkpt>
      <trkpt lat="-16.5328" lon="-151.74651">
        <ele>8.789185</ele>
        <time>2012-05-15T23:31:12Z</time>
      </trkpt>
      <trkpt lat="-16.53277" lon="-151.74647">
        <ele>8.789185</ele>
        <time>2012-05-15T23:31:16Z</time>
      </trkpt>
      <trkpt lat="-16.53275" lon="-151.74644">
        <ele>8.308594</ele>
        <time>2012-05-15T23:31:18Z</time>
      </trkpt>
      <trkpt lat="-16.53232" lon="-151.74639">
        <ele>7.827881</ele>
        <time>2012-05-15T23:31:33Z</time>
      </trkpt>
      <trkpt lat="-16.53164" lon="-151.74635">
        <ele>7.827881</ele>
        <time>2012-05-15T23:31:53Z</time>
      </trkpt>
      <trkpt lat="-16.53088" lon="-151.74624">
        <ele>8.308594</ele>
        <time>2012-05-15T23:32:14Z</time>
      </trkpt>
      <trkpt lat="-16.5302" lon="-151.74584">
        <ele>7.827881</ele>
        <time>2012-05-15T23:32:32Z</time>
      </trkpt>
      <trkpt lat="-16.52981" lon="-151.74546">
        <ele>7.827881</ele>
        <time>2012-05-15T23:32:45Z</time>
      </trkpt>
      <trkpt lat="-16.52963" lon="-151.74518">
        <ele>7.827881</ele>
        <time>2012-05-15T23:32:53Z</time>
      </trkpt>
      <trkpt lat="-16.52956" lon="-151.74432">
        <ele>8.789185</ele>
        <time>2012-05-15T23:33:12Z</time>
      </trkpt>
      <trkpt lat="-16.52953" lon="-151.74346">
        <ele>8.789185</ele>
        <time>2012-05-15T23:33:31Z</time>
      </trkpt>
      <trkpt lat="-16.52939" lon="-151.74252">
        <ele>7.827881</ele>
        <time>2012-05-15T23:33:52Z</time>
      </trkpt>
      <trkpt lat="-16.52908" lon="-151.74165">
        <ele>7.827881</ele>
        <time>2012-05-15T23:34:12Z</time>
      </trkpt>
      <trkpt lat="-16.52868" lon="-151.74084">
        <ele>7.827881</ele>
        <time>2012-05-15T23:34:31Z</time>
      </trkpt>
      <trkpt lat="-16.52813" lon="-151.74014">
        <ele>7.827881</ele>
        <time>2012-05-15T23:34:50Z</time>
      </trkpt>
      <trkpt lat="-16.52733" lon="-151.73955">
        <ele>7.347168</ele>
        <time>2012-05-15T23:35:11Z</time>
      </trkpt>
      <trkpt lat="-16.52662" lon="-151.73888">
        <ele>7.827881</ele>
        <time>2012-05-15T23:35:32Z</time>
      </trkpt>
      <trkpt lat="-16.52616" lon="-151.73841">
        <ele>8.308594</ele>
        <time>2012-05-15T23:35:47Z</time>
      </trkpt>
      <trkpt lat="-16.52563" lon="-151.73789">
        <ele>8.789185</ele>
        <time>2012-05-15T23:36:03Z</time>
      </trkpt>
      <trkpt lat="-16.525" lon="-151.7373">
        <ele>9.75061</ele>
        <time>2012-05-15T23:36:23Z</time>
      </trkpt>
      <trkpt lat="-16.52456" lon="-151.73672">
        <ele>10.711792</ele>
        <time>2012-05-15T23:36:42Z</time>
      </trkpt>
      <trkpt lat="-16.52423" lon="-151.73595">
        <ele>8.308594</ele>
        <time>2012-05-15T23:36:59Z</time>
      </trkpt>
      <trkpt lat="-16.52388" lon="-151.73521">
        <ele>10.231201</ele>
        <time>2012-05-15T23:37:17Z</time>
      </trkpt>
      <trkpt lat="-16.52344" lon="-151.7344">
        <ele>10.231201</ele>
        <time>2012-05-15T23:37:37Z</time>
      </trkpt>
      <trkpt lat="-16.52342" lon="-151.73436">
        <ele>10.231201</ele>
        <time>2012-05-15T23:37:38Z</time>
      </trkpt>
      <trkpt lat="-16.52283" lon="-151.7337">
        <ele>9.75061</ele>
        <time>2012-05-15T23:37:57Z</time>
      </trkpt>
      <trkpt lat="-16.52217" lon="-151.73307">
        <ele>7.827881</ele>
        <time>2012-05-15T23:38:17Z</time>
      </trkpt>
      <trkpt lat="-16.5213" lon="-151.73272">
        <ele>7.827881</ele>
        <time>2012-05-15T23:38:37Z</time>
      </trkpt>
      <trkpt lat="-16.52044" lon="-151.73231">
        <ele>8.308594</ele>
        <time>2012-05-15T23:38:58Z</time>
      </trkpt>
      <trkpt lat="-16.52012" lon="-151.73224">
        <ele>8.789185</ele>
        <time>2012-05-15T23:39:05Z</time>
      </trkpt>
      <trkpt lat="-16.51898" lon="-151.73222">
        <ele>7.827881</ele>
        <time>2012-05-15T23:39:30Z</time>
      </trkpt>
      <trkpt lat="-16.51872" lon="-151.73226">
        <ele>8.308594</ele>
        <time>2012-05-15T23:39:36Z</time>
      </trkpt>
      <trkpt lat="-16.51837" lon="-151.7323">
        <ele>7.827881</ele>
        <time>2012-05-15T23:39:44Z</time>
      </trkpt>
      <trkpt lat="-16.51756" lon="-151.73259">
        <ele>7.827881</ele>
        <time>2012-05-15T23:40:03Z</time>
      </trkpt>
      <trkpt lat="-16.51691" lon="-151.73315">
        <ele>7.347168</ele>
        <time>2012-05-15T23:40:21Z</time>
      </trkpt>
      <trkpt lat="-16.51627" lon="-151.73375">
        <ele>7.347168</ele>
        <time>2012-05-15T23:40:40Z</time>
      </trkpt>
      <trkpt lat="-16.51559" lon="-151.73441">
        <ele>7.827881</ele>
        <time>2012-05-15T23:41:00Z</time>
      </trkpt>
      <trkpt lat="-16.51524" lon="-151.73513">
        <ele>7.347168</ele>
        <time>2012-05-15T23:41:18Z</time>
      </trkpt>
      <trkpt lat="-16.51499" lon="-151.73598">
        <ele>7.347168</ele>
        <time>2012-05-15T23:41:37Z</time>
      </trkpt>
      <trkpt lat="-16.51497" lon="-151.73607">
        <ele>6.866455</ele>
        <time>2012-05-15T23:41:39Z</time>
      </trkpt>
      <trkpt lat="-16.51475" lon="-151.73716">
        <ele>6.866455</ele>
        <time>2012-05-15T23:42:02Z</time>
      </trkpt>
      <trkpt lat="-16.51458" lon="-151.73801">
        <ele>7.347168</ele>
        <time>2012-05-15T23:42:20Z</time>
      </trkpt>
      <trkpt lat="-16.51454" lon="-151.73883">
        <ele>7.347168</ele>
        <time>2012-05-15T23:42:38Z</time>
      </trkpt>
      <trkpt lat="-16.51484" lon="-151.73974">
        <ele>7.347168</ele>
        <time>2012-05-15T23:42:58Z</time>
      </trkpt>
      <trkpt lat="-16.51516" lon="-151.74066">
        <ele>7.827881</ele>
        <time>2012-05-15T23:43:19Z</time>
      </trkpt>
      <trkpt lat="-16.51547" lon="-151.74153">
        <ele>7.347168</ele>
        <time>2012-05-15T23:43:39Z</time>
      </trkpt>
      <trkpt lat="-16.51578" lon="-151.74243">
        <ele>7.827881</ele>
        <time>2012-05-15T23:43:58Z</time>
      </trkpt>
      <trkpt lat="-16.5158" lon="-151.74247">
        <ele>7.347168</ele>
        <time>2012-05-15T23:43:59Z</time>
      </trkpt>
      <trkpt lat="-16.51584" lon="-151.74293">
        <ele>7.347168</ele>
        <time>2012-05-15T23:44:08Z</time>
      </trkpt>
      <trkpt lat="-16.51555" lon="-151.74372">
        <ele>7.347168</ele>
        <time>2012-05-15T23:44:25Z</time>
      </trkpt>
      <trkpt lat="-16.5155" lon="-151.74381">
        <ele>7.827881</ele>
        <time>2012-05-15T23:44:27Z</time>
      </trkpt>
      <trkpt lat="-16.51487" lon="-151.74427">
        <ele>8.789185</ele>
        <time>2012-05-15T23:44:43Z</time>
      </trkpt>
      <trkpt lat="-16.51418" lon="-151.74468">
        <ele>7.827881</ele>
        <time>2012-05-15T23:45:00Z</time>
      </trkpt>
      <trkpt lat="-16.51397" lon="-151.74488">
        <ele>8.308594</ele>
        <time>2012-05-15T23:45:06Z</time>
      </trkpt>
      <trkpt lat="-16.51347" lon="-151.74549">
        <ele>8.308594</ele>
        <time>2012-05-15T23:45:23Z</time>
      </trkpt>
      <trkpt lat="-16.51304" lon="-151.74612">
        <ele>8.308594</ele>
        <time>2012-05-15T23:45:40Z</time>
      </trkpt>
      <trkpt lat="-16.51254" lon="-151.7468">
        <ele>8.308594</ele>
        <time>2012-05-15T23:45:59Z</time>
      </trkpt>
      <trkpt lat="-16.51184" lon="-151.74738">
        <ele>7.827881</ele>
        <time>2012-05-15T23:46:18Z</time>
      </trkpt>
      <trkpt lat="-16.51147" lon="-151.74767">
        <ele>8.308594</ele>
        <time>2012-05-15T23:46:28Z</time>
      </trkpt>
      <trkpt lat="-16.51106" lon="-151.74827">
        <ele>8.308594</ele>
        <time>2012-05-15T23:46:43Z</time>
      </trkpt>
      <trkpt lat="-16.51104" lon="-151.74831">
        <ele>7.827881</ele>
        <time>2012-05-15T23:46:44Z</time>
      </trkpt>
      <trkpt lat="-16.51091" lon="-151.74924">
        <ele>7.347168</ele>
        <time>2012-05-15T23:47:03Z</time>
      </trkpt>
      <trkpt lat="-16.51087" lon="-151.74937">
        <ele>8.308594</ele>
        <time>2012-05-15T23:47:06Z</time>
      </trkpt>
      <trkpt lat="-16.51082" lon="-151.7495">
        <ele>8.308594</ele>
        <time>2012-05-15T23:47:09Z</time>
      </trkpt>
      <trkpt lat="-16.51034" lon="-151.75006">
        <ele>8.789185</ele>
        <time>2012-05-15T23:47:26Z</time>
      </trkpt>
      <trkpt lat="-16.51014" lon="-151.75019">
        <ele>8.789185</ele>
        <time>2012-05-15T23:47:31Z</time>
      </trkpt>
      <trkpt lat="-16.50943" lon="-151.7504">
        <ele>7.827881</ele>
        <time>2012-05-15T23:47:47Z</time>
      </trkpt>
      <trkpt lat="-16.50866" lon="-151.75045">
        <ele>7.347168</ele>
        <time>2012-05-15T23:48:04Z</time>
      </trkpt>
      <trkpt lat="-16.50784" lon="-151.75066">
        <ele>7.827881</ele>
        <time>2012-05-15T23:48:22Z</time>
      </trkpt>
      <trkpt lat="-16.5072" lon="-151.751">
        <ele>7.827881</ele>
        <time>2012-05-15T23:48:40Z</time>
      </trkpt>
      <trkpt lat="-16.50674" lon="-151.75136">
        <ele>7.827881</ele>
        <time>2012-05-15T23:48:59Z</time>
      </trkpt>
      <trkpt lat="-16.50658" lon="-151.75144">
        <ele>6.866455</ele>
        <time>2012-05-15T23:49:13Z</time>
      </trkpt>
      <trkpt lat="-16.5066" lon="-151.75143">
        <ele>7.827881</ele>
        <time>2012-05-15T23:49:42Z</time>
      </trkpt>
      <trkpt lat="-16.50666" lon="-151.75139">
        <ele>6.866455</ele>
        <time>2012-05-15T23:49:58Z</time>
      </trkpt>
      <trkpt lat="-16.50668" lon="-151.75138">
        <ele>7.827881</ele>
        <time>2012-05-15T23:50:01Z</time>
      </trkpt>
      <trkpt lat="-16.50676" lon="-151.75133">
        <ele>7.827881</ele>
        <time>2012-05-15T23:50:11Z</time>
      </trkpt>
      <trkpt lat="-16.50683" lon="-151.75127">
        <ele>6.866455</ele>
        <time>2012-05-15T23:50:29Z</time>
      </trkpt>
      <trkpt lat="-16.50685" lon="-151.75149">
        <ele>6.866455</ele>
        <time>2012-05-15T23:50:49Z</time>
      </trkpt>
      <trkpt lat="-16.50686" lon="-151.75153">
        <ele>7.827881</ele>
        <time>2012-05-15T23:51:08Z</time>
      </trkpt>
      <trkpt lat="-16.50686" lon="-151.75153">
        <ele>6.385864</ele>
        <time>2012-05-15T23:51:27Z</time>
      </trkpt>
      <trkpt lat="-16.50686" lon="-151.75154">
        <ele>7.347168</ele>
        <time>2012-05-15T23:51:48Z</time>
      </trkpt>
      <trkpt lat="-16.50681" lon="-151.75142">
        <ele>5.905273</ele>
        <time>2012-05-15T23:52:07Z</time>
      </trkpt>
      <trkpt lat="-16.50677" lon="-151.75132">
        <ele>6.866455</ele>
        <time>2012-05-15T23:53:24Z</time>
      </trkpt>
      <trkpt lat="-16.50682" lon="-151.75149">
        <ele>7.347168</ele>
        <time>2012-05-15T23:54:08Z</time>
      </trkpt>
      <trkpt lat="-16.50683" lon="-151.75154">
        <ele>6.385864</ele>
        <time>2012-05-15T23:54:45Z</time>
      </trkpt>
      <trkpt lat="-16.50677" lon="-151.7515">
        <ele>6.385864</ele>
        <time>2012-05-15T23:55:02Z</time>
      </trkpt>
      <trkpt lat="-16.50675" lon="-151.7515">
        <ele>6.385864</ele>
        <time>2012-05-15T23:55:07Z</time>
      </trkpt>
      <trkpt lat="-16.50668" lon="-151.75148">
        <ele>7.347168</ele>
        <time>2012-05-15T23:55:12Z</time>
      </trkpt>
      <trkpt lat="-16.50659" lon="-151.75146">
        <ele>7.347168</ele>
        <time>2012-05-15T23:55:18Z</time>
      </trkpt>
      <trkpt lat="-16.50616" lon="-151.75164">
        <ele>8.789185</ele>
        <time>2012-05-15T23:55:35Z</time>
      </trkpt>
      <trkpt lat="-16.50564" lon="-151.75184">
        <ele>7.347168</ele>
        <time>2012-05-15T23:55:55Z</time>
      </trkpt>
      <trkpt lat="-16.50509" lon="-151.75185">
        <ele>6.385864</ele>
        <time>2012-05-15T23:56:12Z</time>
      </trkpt>
      <trkpt lat="-16.50453" lon="-151.7517">
        <ele>7.827881</ele>
        <time>2012-05-15T23:56:30Z</time>
      </trkpt>
      <trkpt lat="-16.50455" lon="-151.75165">
        <ele>8.789185</ele>
        <time>2012-05-15T23:56:40Z</time>
      </trkpt>
      <trkpt lat="-16.50455" lon="-151.75165">
        <ele>7.827881</ele>
        <time>2012-05-15T23:56:43Z</time>
      </trkpt>
      <trkpt lat="-16.50467" lon="-151.75169">
        <ele>7.347168</ele>
        <time>2012-05-15T23:56:58Z</time>
      </trkpt>
      <trkpt lat="-16.50462" lon="-151.75176">
        <ele>6.866455</ele>
        <time>2012-05-15T23:57:19Z</time>
      </trkpt>
      <trkpt lat="-16.50465" lon="-151.75169">
        <ele>7.347168</ele>
        <time>2012-05-15T23:57:31Z</time>
      </trkpt>
      <trkpt lat="-16.50466" lon="-151.75169">
        <ele>8.308594</ele>
        <time>2012-05-15T23:57:43Z</time>
      </trkpt>
      <trkpt lat="-16.50467" lon="-151.75163">
        <ele>7.827881</ele>
        <time>2012-05-15T23:57:47Z</time>
      </trkpt>
    </trkseg>
  </trk>
  <trk>
    <name><![CDATA[ACTIVE LOG 012]]></name>
    <trkseg>
      <trkpt lat="-16.50463" lon="-151.75146">
        <ele>8.308594</ele>
        <time>2012-05-15T23:59:01Z</time>
      </trkpt>
      <trkpt lat="-16.50458" lon="-151.75173">
        <ele>6.385864</ele>
        <time>2012-05-15T23:59:20Z</time>
      </trkpt>
      <trkpt lat="-16.50452" lon="-151.75178">
        <ele>7.347168</ele>
        <time>2012-05-15T23:59:40Z</time>
      </trkpt>
      <trkpt lat="-16.50453" lon="-151.75182">
        <ele>6.866455</ele>
        <time>2012-05-15T23:59:59Z</time>
      </trkpt>
      <trkpt lat="-16.50465" lon="-151.75179">
        <ele>5.905273</ele>
        <time>2012-05-16T00:00:29Z</time>
      </trkpt>
      <trkpt lat="-16.50467" lon="-151.75179">
        <ele>8.789185</ele>
        <time>2012-05-16T00:00:57Z</time>
      </trkpt>
      <trkpt lat="-16.50464" lon="-151.75179">
        <ele>7.347168</ele>
        <time>2012-05-16T00:01:38Z</time>
      </trkpt>
      <trkpt lat="-16.50462" lon="-151.75179">
        <ele>6.866455</ele>
        <time>2012-05-16T00:01:44Z</time>
      </trkpt>
      <trkpt lat="-16.50451" lon="-151.75175">
        <ele>5.905273</ele>
        <time>2012-05-16T00:01:51Z</time>
      </trkpt>
      <trkpt lat="-16.50396" lon="-151.75148">
        <ele>6.866455</ele>
        <time>2012-05-16T00:02:11Z</time>
      </trkpt>
      <trkpt lat="-16.50335" lon="-151.75128">
        <ele>7.347168</ele>
        <time>2012-05-16T00:02:30Z</time>
      </trkpt>
      <trkpt lat="-16.50291" lon="-151.75123">
        <ele>6.866455</ele>
        <time>2012-05-16T00:02:43Z</time>
      </trkpt>
      <trkpt lat="-16.50217" lon="-151.75129">
        <ele>6.866455</ele>
        <time>2012-05-16T00:03:02Z</time>
      </trkpt>
      <trkpt lat="-16.50128" lon="-151.75127">
        <ele>7.827881</ele>
        <time>2012-05-16T00:03:24Z</time>
      </trkpt>
      <trkpt lat="-16.50066" lon="-151.75148">
        <ele>7.347168</ele>
        <time>2012-05-16T00:03:40Z</time>
      </trkpt>
      <trkpt lat="-16.50045" lon="-151.75164">
        <ele>7.347168</ele>
        <time>2012-05-16T00:03:46Z</time>
      </trkpt>
      <trkpt lat="-16.49996" lon="-151.7522">
        <ele>6.866455</ele>
        <time>2012-05-16T00:04:03Z</time>
      </trkpt>
      <trkpt lat="-16.49953" lon="-151.75284">
        <ele>6.385864</ele>
        <time>2012-05-16T00:04:22Z</time>
      </trkpt>
      <trkpt lat="-16.49919" lon="-151.7534">
        <ele>6.866455</ele>
        <time>2012-05-16T00:04:37Z</time>
      </trkpt>
      <trkpt lat="-16.49886" lon="-151.75423">
        <ele>7.827881</ele>
        <time>2012-05-16T00:04:58Z</time>
      </trkpt>
      <trkpt lat="-16.49883" lon="-151.75436">
        <ele>7.827881</ele>
        <time>2012-05-16T00:05:01Z</time>
      </trkpt>
      <trkpt lat="-16.49873" lon="-151.75514">
        <ele>8.308594</ele>
        <time>2012-05-16T00:05:18Z</time>
      </trkpt>
      <trkpt lat="-16.49869" lon="-151.75604">
        <ele>7.347168</ele>
        <time>2012-05-16T00:05:38Z</time>
      </trkpt>
      <trkpt lat="-16.49868" lon="-151.75679">
        <ele>8.308594</ele>
        <time>2012-05-16T00:05:57Z</time>
      </trkpt>
      <trkpt lat="-16.49862" lon="-151.75738">
        <ele>7.827881</ele>
        <time>2012-05-16T00:06:10Z</time>
      </trkpt>
      <trkpt lat="-16.4984" lon="-151.75818">
        <ele>8.308594</ele>
        <time>2012-05-16T00:06:28Z</time>
      </trkpt>
      <trkpt lat="-16.49838" lon="-151.75827">
        <ele>8.308594</ele>
        <time>2012-05-16T00:06:30Z</time>
      </trkpt>
      <trkpt lat="-16.49825" lon="-151.7585">
        <ele>8.308594</ele>
        <time>2012-05-16T00:06:36Z</time>
      </trkpt>
      <trkpt lat="-16.49783" lon="-151.75924">
        <ele>8.308594</ele>
        <time>2012-05-16T00:06:54Z</time>
      </trkpt>
      <trkpt lat="-16.49767" lon="-151.75948">
        <ele>8.308594</ele>
        <time>2012-05-16T00:07:00Z</time>
      </trkpt>
      <trkpt lat="-16.49694" lon="-151.76024">
        <ele>8.789185</ele>
        <time>2012-05-16T00:07:22Z</time>
      </trkpt>
      <trkpt lat="-16.49667" lon="-151.76051">
        <ele>8.308594</ele>
        <time>2012-05-16T00:07:30Z</time>
      </trkpt>
      <trkpt lat="-16.49653" lon="-151.76065">
        <ele>8.308594</ele>
        <time>2012-05-16T00:07:34Z</time>
      </trkpt>
      <trkpt lat="-16.49633" lon="-151.76079">
        <ele>9.269897</ele>
        <time>2012-05-16T00:07:39Z</time>
      </trkpt>
      <trkpt lat="-16.49554" lon="-151.76121">
        <ele>8.789185</ele>
        <time>2012-05-16T00:07:58Z</time>
      </trkpt>
      <trkpt lat="-16.49546" lon="-151.76125">
        <ele>9.269897</ele>
        <time>2012-05-16T00:08:00Z</time>
      </trkpt>
      <trkpt lat="-16.49493" lon="-151.76141">
        <ele>9.269897</ele>
        <time>2012-05-16T00:08:12Z</time>
      </trkpt>
      <trkpt lat="-16.49455" lon="-151.76144">
        <ele>8.789185</ele>
        <time>2012-05-16T00:08:20Z</time>
      </trkpt>
      <trkpt lat="-16.49414" lon="-151.76132">
        <ele>8.789185</ele>
        <time>2012-05-16T00:08:29Z</time>
      </trkpt>
      <trkpt lat="-16.49385" lon="-151.76106">
        <ele>9.269897</ele>
        <time>2012-05-16T00:08:37Z</time>
      </trkpt>
      <trkpt lat="-16.49355" lon="-151.76057">
        <ele>8.308594</ele>
        <time>2012-05-16T00:08:49Z</time>
      </trkpt>
      <trkpt lat="-16.49319" lon="-151.75995">
        <ele>7.827881</ele>
        <time>2012-05-16T00:09:04Z</time>
      </trkpt>
      <trkpt lat="-16.49268" lon="-151.75929">
        <ele>8.789185</ele>
        <time>2012-05-16T00:09:22Z</time>
      </trkpt>
      <trkpt lat="-16.49248" lon="-151.75917">
        <ele>7.827881</ele>
        <time>2012-05-16T00:09:27Z</time>
      </trkpt>
      <trkpt lat="-16.49227" lon="-151.75908">
        <ele>8.789185</ele>
        <time>2012-05-16T00:09:32Z</time>
      </trkpt>
      <trkpt lat="-16.49185" lon="-151.7589">
        <ele>8.308594</ele>
        <time>2012-05-16T00:09:42Z</time>
      </trkpt>
      <trkpt lat="-16.49123" lon="-151.75855">
        <ele>8.308594</ele>
        <time>2012-05-16T00:09:57Z</time>
      </trkpt>
      <trkpt lat="-16.49105" lon="-151.75851">
        <ele>8.308594</ele>
        <time>2012-05-16T00:10:01Z</time>
      </trkpt>
      <trkpt lat="-16.49034" lon="-151.75862">
        <ele>8.308594</ele>
        <time>2012-05-16T00:10:19Z</time>
      </trkpt>
      <trkpt lat="-16.48961" lon="-151.75888">
        <ele>9.269897</ele>
        <time>2012-05-16T00:10:37Z</time>
      </trkpt>
      <trkpt lat="-16.48912" lon="-151.75901">
        <ele>9.269897</ele>
        <time>2012-05-16T00:10:48Z</time>
      </trkpt>
      <trkpt lat="-16.48825" lon="-151.75921">
        <ele>9.269897</ele>
        <time>2012-05-16T00:11:07Z</time>
      </trkpt>
      <trkpt lat="-16.48806" lon="-151.75918">
        <ele>8.789185</ele>
        <time>2012-05-16T00:11:11Z</time>
      </trkpt>
      <trkpt lat="-16.48748" lon="-151.75877">
        <ele>9.269897</ele>
        <time>2012-05-16T00:11:28Z</time>
      </trkpt>
      <trkpt lat="-16.48728" lon="-151.7588">
        <ele>6.866455</ele>
        <time>2012-05-16T00:11:36Z</time>
      </trkpt>
      <trkpt lat="-16.48702" lon="-151.75852">
        <ele>6.866455</ele>
        <time>2012-05-16T00:11:45Z</time>
      </trkpt>
      <trkpt lat="-16.48701" lon="-151.75848">
        <ele>6.385864</ele>
        <time>2012-05-16T00:11:46Z</time>
      </trkpt>
      <trkpt lat="-16.48695" lon="-151.75804">
        <ele>5.905273</ele>
        <time>2012-05-16T00:12:02Z</time>
      </trkpt>
      <trkpt lat="-16.48683" lon="-151.75773">
        <ele>7.347168</ele>
        <time>2012-05-16T00:12:14Z</time>
      </trkpt>
      <trkpt lat="-16.48669" lon="-151.7578">
        <ele>7.827881</ele>
        <time>2012-05-16T00:12:23Z</time>
      </trkpt>
      <trkpt lat="-16.48668" lon="-151.75782">
        <ele>7.347168</ele>
        <time>2012-05-16T00:13:01Z</time>
      </trkpt>
      <trkpt lat="-16.4867" lon="-151.7578">
        <ele>6.866455</ele>
        <time>2012-05-16T00:13:05Z</time>
      </trkpt>
      <trkpt lat="-16.48679" lon="-151.75762">
        <ele>6.385864</ele>
        <time>2012-05-16T00:13:17Z</time>
      </trkpt>
      <trkpt lat="-16.48685" lon="-151.75759">
        <ele>6.385864</ele>
        <time>2012-05-16T00:13:21Z</time>
      </trkpt>
      <trkpt lat="-16.48698" lon="-151.75761">
        <ele>5.905273</ele>
        <time>2012-05-16T00:13:28Z</time>
      </trkpt>
      <trkpt lat="-16.48708" lon="-151.75753">
        <ele>6.866455</ele>
        <time>2012-05-16T00:13:35Z</time>
      </trkpt>
      <trkpt lat="-16.48728" lon="-151.75721">
        <ele>6.385864</ele>
        <time>2012-05-16T00:13:48Z</time>
      </trkpt>
      <trkpt lat="-16.48769" lon="-151.75631">
        <ele>7.347168</ele>
        <time>2012-05-16T00:14:10Z</time>
      </trkpt>
      <trkpt lat="-16.48795" lon="-151.75588">
        <ele>7.827881</ele>
        <time>2012-05-16T00:14:22Z</time>
      </trkpt>
      <trkpt lat="-16.48843" lon="-151.7553">
        <ele>6.866455</ele>
        <time>2012-05-16T00:14:39Z</time>
      </trkpt>
      <trkpt lat="-16.48884" lon="-151.755">
        <ele>7.347168</ele>
        <time>2012-05-16T00:14:54Z</time>
      </trkpt>
      <trkpt lat="-16.48885" lon="-151.755">
        <ele>8.308594</ele>
        <time>2012-05-16T00:15:05Z</time>
      </trkpt>
      <trkpt lat="-16.48885" lon="-151.755">
        <ele>7.347168</ele>
        <time>2012-05-16T00:15:07Z</time>
      </trkpt>
      <trkpt lat="-16.48883" lon="-151.75503">
        <ele>7.347168</ele>
        <time>2012-05-16T00:15:30Z</time>
      </trkpt>
      <trkpt lat="-16.48895" lon="-151.75521">
        <ele>9.269897</ele>
        <time>2012-05-16T00:15:49Z</time>
      </trkpt>
      <trkpt lat="-16.48895" lon="-151.75522">
        <ele>8.789185</ele>
        <time>2012-05-16T00:15:51Z</time>
      </trkpt>
      <trkpt lat="-16.48892" lon="-151.75535">
        <ele>11.192505</ele>
        <time>2012-05-16T00:16:04Z</time>
      </trkpt>
      <trkpt lat="-16.48886" lon="-151.75553">
        <ele>14.557007</ele>
        <time>2012-05-16T00:16:21Z</time>
      </trkpt>
      <trkpt lat="-16.48885" lon="-151.75555">
        <ele>15.518433</ele>
        <time>2012-05-16T00:16:23Z</time>
      </trkpt>
      <trkpt lat="-16.48881" lon="-151.75561">
        <ele>16.960449</ele>
        <time>2012-05-16T00:16:29Z</time>
      </trkpt>
      <trkpt lat="-16.4888" lon="-151.75568">
        <ele>19.36377</ele>
        <time>2012-05-16T00:16:36Z</time>
      </trkpt>
      <trkpt lat="-16.48888" lon="-151.75576">
        <ele>22.728271</ele>
        <time>2012-05-16T00:16:49Z</time>
      </trkpt>
      <trkpt lat="-16.48904" lon="-151.75574">
        <ele>25.612305</ele>
        <time>2012-05-16T00:17:06Z</time>
      </trkpt>
      <trkpt lat="-16.48905" lon="-151.75574">
        <ele>25.612305</ele>
        <time>2012-05-16T00:17:07Z</time>
      </trkpt>
      <trkpt lat="-16.48925" lon="-151.75575">
        <ele>28.015503</ele>
        <time>2012-05-16T00:17:26Z</time>
      </trkpt>
      <trkpt lat="-16.4894" lon="-151.75575">
        <ele>31.380127</ele>
        <time>2012-05-16T00:17:42Z</time>
      </trkpt>
      <trkpt lat="-16.48944" lon="-151.75574">
        <ele>31.380127</ele>
        <time>2012-05-16T00:17:46Z</time>
      </trkpt>
      <trkpt lat="-16.48958" lon="-151.75571">
        <ele>34.26416</ele>
        <time>2012-05-16T00:17:58Z</time>
      </trkpt>
      <trkpt lat="-16.48965" lon="-151.75573">
        <ele>34.744873</ele>
        <time>2012-05-16T00:18:16Z</time>
      </trkpt>
      <trkpt lat="-16.48965" lon="-151.75573">
        <ele>35.225464</ele>
        <time>2012-05-16T00:18:17Z</time>
      </trkpt>
      <trkpt lat="-16.48966" lon="-151.7557">
        <ele>34.744873</ele>
        <time>2012-05-16T00:18:39Z</time>
      </trkpt>
      <trkpt lat="-16.48964" lon="-151.75572">
        <ele>35.225464</ele>
        <time>2012-05-16T00:19:30Z</time>
      </trkpt>
      <trkpt lat="-16.48965" lon="-151.75571">
        <ele>35.706055</ele>
        <time>2012-05-16T00:19:35Z</time>
      </trkpt>
      <trkpt lat="-16.48974" lon="-151.75568">
        <ele>37.148071</ele>
        <time>2012-05-16T00:19:44Z</time>
      </trkpt>
      <trkpt lat="-16.48979" lon="-151.75568">
        <ele>38.109375</ele>
        <time>2012-05-16T00:19:49Z</time>
      </trkpt>
      <trkpt lat="-16.4899" lon="-151.75567">
        <ele>41.473999</ele>
        <time>2012-05-16T00:20:04Z</time>
      </trkpt>
      <trkpt lat="-16.49001" lon="-151.75565">
        <ele>44.838623</ele>
        <time>2012-05-16T00:20:16Z</time>
      </trkpt>
      <trkpt lat="-16.49013" lon="-151.75561">
        <ele>47.722534</ele>
        <time>2012-05-16T00:20:30Z</time>
      </trkpt>
      <trkpt lat="-16.49024" lon="-151.75563">
        <ele>50.606567</ele>
        <time>2012-05-16T00:20:46Z</time>
      </trkpt>
      <trkpt lat="-16.49037" lon="-151.75566">
        <ele>53.009766</ele>
        <time>2012-05-16T00:21:01Z</time>
      </trkpt>
      <trkpt lat="-16.49047" lon="-151.75564">
        <ele>55.413086</ele>
        <time>2012-05-16T00:21:11Z</time>
      </trkpt>
      <trkpt lat="-16.49055" lon="-151.75568">
        <ele>56.855103</ele>
        <time>2012-05-16T00:21:25Z</time>
      </trkpt>
      <trkpt lat="-16.49064" lon="-151.75569">
        <ele>60.700317</ele>
        <time>2012-05-16T00:21:38Z</time>
      </trkpt>
      <trkpt lat="-16.49072" lon="-151.75567">
        <ele>61.661743</ele>
        <time>2012-05-16T00:21:53Z</time>
      </trkpt>
      <trkpt lat="-16.49082" lon="-151.75563">
        <ele>63.584351</ele>
        <time>2012-05-16T00:22:05Z</time>
      </trkpt>
      <trkpt lat="-16.49091" lon="-151.75557">
        <ele>65.50708</ele>
        <time>2012-05-16T00:22:14Z</time>
      </trkpt>
      <trkpt lat="-16.49103" lon="-151.7555">
        <ele>68.390869</ele>
        <time>2012-05-16T00:22:27Z</time>
      </trkpt>
      <trkpt lat="-16.49108" lon="-151.75547">
        <ele>67.910278</ele>
        <time>2012-05-16T00:22:32Z</time>
      </trkpt>
      <trkpt lat="-16.49128" lon="-151.75538">
        <ele>69.832886</ele>
        <time>2012-05-16T00:22:50Z</time>
      </trkpt>
      <trkpt lat="-16.49142" lon="-151.75535">
        <ele>72.236206</ele>
        <time>2012-05-16T00:23:04Z</time>
      </trkpt>
      <trkpt lat="-16.49151" lon="-151.75532">
        <ele>74.639526</ele>
        <time>2012-05-16T00:23:14Z</time>
      </trkpt>
      <trkpt lat="-16.49166" lon="-151.75526">
        <ele>77.523438</ele>
        <time>2012-05-16T00:23:29Z</time>
      </trkpt>
      <trkpt lat="-16.49181" lon="-151.75519">
        <ele>80.407471</ele>
        <time>2012-05-16T00:23:47Z</time>
      </trkpt>
      <trkpt lat="-16.49184" lon="-151.75517">
        <ele>81.849365</ele>
        <time>2012-05-16T00:23:51Z</time>
      </trkpt>
      <trkpt lat="-16.49189" lon="-151.75514">
        <ele>82.330078</ele>
        <time>2012-05-16T00:23:56Z</time>
      </trkpt>
      <trkpt lat="-16.49199" lon="-151.75506">
        <ele>83.291382</ele>
        <time>2012-05-16T00:24:10Z</time>
      </trkpt>
      <trkpt lat="-16.49205" lon="-151.75506">
        <ele>83.291382</ele>
        <time>2012-05-16T00:24:24Z</time>
      </trkpt>
      <trkpt lat="-16.49218" lon="-151.7551">
        <ele>79.926636</ele>
        <time>2012-05-16T00:24:42Z</time>
      </trkpt>
      <trkpt lat="-16.49235" lon="-151.75512">
        <ele>77.042847</ele>
        <time>2012-05-16T00:25:00Z</time>
      </trkpt>
      <trkpt lat="-16.49256" lon="-151.75513">
        <ele>74.158813</ele>
        <time>2012-05-16T00:25:17Z</time>
      </trkpt>
      <trkpt lat="-16.49288" lon="-151.7551">
        <ele>74.158813</ele>
        <time>2012-05-16T00:25:39Z</time>
      </trkpt>
      <trkpt lat="-16.49318" lon="-151.75503">
        <ele>75.60083</ele>
        <time>2012-05-16T00:26:01Z</time>
      </trkpt>
      <trkpt lat="-16.49346" lon="-151.75494">
        <ele>78.484741</ele>
        <time>2012-05-16T00:26:22Z</time>
      </trkpt>
      <trkpt lat="-16.49372" lon="-151.75489">
        <ele>80.888184</ele>
        <time>2012-05-16T00:26:42Z</time>
      </trkpt>
      <trkpt lat="-16.49397" lon="-151.75481">
        <ele>82.810791</ele>
        <time>2012-05-16T00:27:01Z</time>
      </trkpt>
      <trkpt lat="-16.49425" lon="-151.75481">
        <ele>85.69458</ele>
        <time>2012-05-16T00:27:24Z</time>
      </trkpt>
      <trkpt lat="-16.49438" lon="-151.75488">
        <ele>89.539917</ele>
        <time>2012-05-16T00:27:38Z</time>
      </trkpt>
      <trkpt lat="-16.49453" lon="-151.75496">
        <ele>90.501343</ele>
        <time>2012-05-16T00:27:55Z</time>
      </trkpt>
      <trkpt lat="-16.49466" lon="-151.75513">
        <ele>90.981934</ele>
        <time>2012-05-16T00:28:11Z</time>
      </trkpt>
      <trkpt lat="-16.49473" lon="-151.75519">
        <ele>90.981934</ele>
        <time>2012-05-16T00:28:18Z</time>
      </trkpt>
      <trkpt lat="-16.49487" lon="-151.75537">
        <ele>90.981934</ele>
        <time>2012-05-16T00:28:34Z</time>
      </trkpt>
      <trkpt lat="-16.49493" lon="-151.75553">
        <ele>90.501343</ele>
        <time>2012-05-16T00:28:48Z</time>
      </trkpt>
      <trkpt lat="-16.49493" lon="-151.75558">
        <ele>89.539917</ele>
        <time>2012-05-16T00:28:52Z</time>
      </trkpt>
      <trkpt lat="-16.49495" lon="-151.75571">
        <ele>88.098022</ele>
        <time>2012-05-16T00:29:01Z</time>
      </trkpt>
      <trkpt lat="-16.49508" lon="-151.75587">
        <ele>87.136597</ele>
        <time>2012-05-16T00:29:15Z</time>
      </trkpt>
      <trkpt lat="-16.49523" lon="-151.75602">
        <ele>86.175293</ele>
        <time>2012-05-16T00:29:30Z</time>
      </trkpt>
      <trkpt lat="-16.49536" lon="-151.75613">
        <ele>86.175293</ele>
        <time>2012-05-16T00:29:41Z</time>
      </trkpt>
      <trkpt lat="-16.49549" lon="-151.75625">
        <ele>84.252686</ele>
        <time>2012-05-16T00:29:53Z</time>
      </trkpt>
      <trkpt lat="-16.49555" lon="-151.75627">
        <ele>84.733398</ele>
        <time>2012-05-16T00:29:57Z</time>
      </trkpt>
      <trkpt lat="-16.49565" lon="-151.75635">
        <ele>84.733398</ele>
        <time>2012-05-16T00:30:12Z</time>
      </trkpt>
      <trkpt lat="-16.49562" lon="-151.75652">
        <ele>81.849365</ele>
        <time>2012-05-16T00:30:27Z</time>
      </trkpt>
      <trkpt lat="-16.49558" lon="-151.75668">
        <ele>79.446045</ele>
        <time>2012-05-16T00:30:42Z</time>
      </trkpt>
      <trkpt lat="-16.49557" lon="-151.75685">
        <ele>76.081421</ele>
        <time>2012-05-16T00:30:56Z</time>
      </trkpt>
      <trkpt lat="-16.49556" lon="-151.75704">
        <ele>73.678223</ele>
        <time>2012-05-16T00:31:11Z</time>
      </trkpt>
      <trkpt lat="-16.49554" lon="-151.75713">
        <ele>71.274902</ele>
        <time>2012-05-16T00:31:20Z</time>
      </trkpt>
      <trkpt lat="-16.49551" lon="-151.75734">
        <ele>70.313477</ele>
        <time>2012-05-16T00:31:36Z</time>
      </trkpt>
      <trkpt lat="-16.49551" lon="-151.75739">
        <ele>69.832886</ele>
        <time>2012-05-16T00:31:39Z</time>
      </trkpt>
      <trkpt lat="-16.49553" lon="-151.75761">
        <ele>70.794189</ele>
        <time>2012-05-16T00:31:55Z</time>
      </trkpt>
      <trkpt lat="-16.49555" lon="-151.75777">
        <ele>72.716919</ele>
        <time>2012-05-16T00:32:09Z</time>
      </trkpt>
      <trkpt lat="-16.4956" lon="-151.75796">
        <ele>75.60083</ele>
        <time>2012-05-16T00:32:23Z</time>
      </trkpt>
      <trkpt lat="-16.49564" lon="-151.75813">
        <ele>77.042847</ele>
        <time>2012-05-16T00:32:36Z</time>
      </trkpt>
      <trkpt lat="-16.49571" lon="-151.75831">
        <ele>78.484741</ele>
        <time>2012-05-16T00:32:50Z</time>
      </trkpt>
      <trkpt lat="-16.49572" lon="-151.75846">
        <ele>78.965454</ele>
        <time>2012-05-16T00:33:06Z</time>
      </trkpt>
      <trkpt lat="-16.4957" lon="-151.75858">
        <ele>78.965454</ele>
        <time>2012-05-16T00:33:24Z</time>
      </trkpt>
      <trkpt lat="-16.49566" lon="-151.75873">
        <ele>78.965454</ele>
        <time>2012-05-16T00:33:41Z</time>
      </trkpt>
      <trkpt lat="-16.49565" lon="-151.75889">
        <ele>79.446045</ele>
        <time>2012-05-16T00:33:51Z</time>
      </trkpt>
      <trkpt lat="-16.4957" lon="-151.75893">
        <ele>80.888184</ele>
        <time>2012-05-16T00:33:57Z</time>
      </trkpt>
      <trkpt lat="-16.4958" lon="-151.75879">
        <ele>82.810791</ele>
        <time>2012-05-16T00:34:13Z</time>
      </trkpt>
      <trkpt lat="-16.49583" lon="-151.75877">
        <ele>82.330078</ele>
        <time>2012-05-16T00:34:27Z</time>
      </trkpt>
      <trkpt lat="-16.4958" lon="-151.75871">
        <ele>82.810791</ele>
        <time>2012-05-16T00:34:43Z</time>
      </trkpt>
      <trkpt lat="-16.49576" lon="-151.75872">
        <ele>81.849365</ele>
        <time>2012-05-16T00:34:57Z</time>
      </trkpt>
      <trkpt lat="-16.49581" lon="-151.7587">
        <ele>82.330078</ele>
        <time>2012-05-16T00:35:14Z</time>
      </trkpt>
      <trkpt lat="-16.49588" lon="-151.75869">
        <ele>82.810791</ele>
        <time>2012-05-16T00:35:29Z</time>
      </trkpt>
      <trkpt lat="-16.49591" lon="-151.75869">
        <ele>82.330078</ele>
        <time>2012-05-16T00:35:47Z</time>
      </trkpt>
      <trkpt lat="-16.4959" lon="-151.75868">
        <ele>83.291382</ele>
        <time>2012-05-16T00:35:57Z</time>
      </trkpt>
      <trkpt lat="-16.49586" lon="-151.75868">
        <ele>82.810791</ele>
        <time>2012-05-16T00:36:11Z</time>
      </trkpt>
      <trkpt lat="-16.49584" lon="-151.75874">
        <ele>83.291382</ele>
        <time>2012-05-16T00:36:35Z</time>
      </trkpt>
      <trkpt lat="-16.49581" lon="-151.75873">
        <ele>83.291382</ele>
        <time>2012-05-16T00:36:50Z</time>
      </trkpt>
      <trkpt lat="-16.49586" lon="-151.75873">
        <ele>82.810791</ele>
        <time>2012-05-16T00:37:07Z</time>
      </trkpt>
      <trkpt lat="-16.49581" lon="-151.75871">
        <ele>82.810791</ele>
        <time>2012-05-16T00:37:21Z</time>
      </trkpt>
      <trkpt lat="-16.49585" lon="-151.75868">
        <ele>83.771973</ele>
        <time>2012-05-16T00:37:54Z</time>
      </trkpt>
      <trkpt lat="-16.49587" lon="-151.75869">
        <ele>83.771973</ele>
        <time>2012-05-16T00:38:14Z</time>
      </trkpt>
      <trkpt lat="-16.49583" lon="-151.75869">
        <ele>83.771973</ele>
        <time>2012-05-16T00:38:26Z</time>
      </trkpt>
      <trkpt lat="-16.49581" lon="-151.7587">
        <ele>83.291382</ele>
        <time>2012-05-16T00:38:39Z</time>
      </trkpt>
      <trkpt lat="-16.4958" lon="-151.75863">
        <ele>82.810791</ele>
        <time>2012-05-16T00:38:58Z</time>
      </trkpt>
      <trkpt lat="-16.49584" lon="-151.75861">
        <ele>84.252686</ele>
        <time>2012-05-16T00:39:01Z</time>
      </trkpt>
      <trkpt lat="-16.49589" lon="-151.75865">
        <ele>82.810791</ele>
        <time>2012-05-16T00:39:12Z</time>
      </trkpt>
      <trkpt lat="-16.49592" lon="-151.75871">
        <ele>83.771973</ele>
        <time>2012-05-16T00:39:40Z</time>
      </trkpt>
      <trkpt lat="-16.49591" lon="-151.75868">
        <ele>82.810791</ele>
        <time>2012-05-16T00:40:21Z</time>
      </trkpt>
      <trkpt lat="-16.4959" lon="-151.75869">
        <ele>82.810791</ele>
        <time>2012-05-16T00:40:22Z</time>
      </trkpt>
      <trkpt lat="-16.49584" lon="-151.75873">
        <ele>83.291382</ele>
        <time>2012-05-16T00:40:32Z</time>
      </trkpt>
      <trkpt lat="-16.49584" lon="-151.75871">
        <ele>83.291382</ele>
        <time>2012-05-16T00:40:49Z</time>
      </trkpt>
      <trkpt lat="-16.49585" lon="-151.7587">
        <ele>82.810791</ele>
        <time>2012-05-16T00:40:52Z</time>
      </trkpt>
      <trkpt lat="-16.49586" lon="-151.75871">
        <ele>84.252686</ele>
        <time>2012-05-16T00:41:00Z</time>
      </trkpt>
      <trkpt lat="-16.49584" lon="-151.75866">
        <ele>82.330078</ele>
        <time>2012-05-16T00:41:09Z</time>
      </trkpt>
      <trkpt lat="-16.49585" lon="-151.75867">
        <ele>84.252686</ele>
        <time>2012-05-16T00:41:13Z</time>
      </trkpt>
      <trkpt lat="-16.49584" lon="-151.75866">
        <ele>83.291382</ele>
        <time>2012-05-16T00:41:24Z</time>
      </trkpt>
      <trkpt lat="-16.49585" lon="-151.75866">
        <ele>83.771973</ele>
        <time>2012-05-16T00:41:38Z</time>
      </trkpt>
      <trkpt lat="-16.49584" lon="-151.75865">
        <ele>82.810791</ele>
        <time>2012-05-16T00:41:47Z</time>
      </trkpt>
      <trkpt lat="-16.49584" lon="-151.75863">
        <ele>83.771973</ele>
        <time>2012-05-16T00:42:13Z</time>
      </trkpt>
      <trkpt lat="-16.49583" lon="-151.7586">
        <ele>83.771973</ele>
        <time>2012-05-16T00:42:25Z</time>
      </trkpt>
      <trkpt lat="-16.49584" lon="-151.75858">
        <ele>83.771973</ele>
        <time>2012-05-16T00:42:42Z</time>
      </trkpt>
      <trkpt lat="-16.49587" lon="-151.75869">
        <ele>83.291382</ele>
        <time>2012-05-16T00:42:58Z</time>
      </trkpt>
      <trkpt lat="-16.49586" lon="-151.75865">
        <ele>83.291382</ele>
        <time>2012-05-16T00:43:13Z</time>
      </trkpt>
      <trkpt lat="-16.49587" lon="-151.75855">
        <ele>82.810791</ele>
        <time>2012-05-16T00:43:27Z</time>
      </trkpt>
      <trkpt lat="-16.49586" lon="-151.75853">
        <ele>83.291382</ele>
        <time>2012-05-16T00:43:31Z</time>
      </trkpt>
      <trkpt lat="-16.49585" lon="-151.7585">
        <ele>83.291382</ele>
        <time>2012-05-16T00:43:33Z</time>
      </trkpt>
      <trkpt lat="-16.49575" lon="-151.75831">
        <ele>81.368774</ele>
        <time>2012-05-16T00:43:50Z</time>
      </trkpt>
      <trkpt lat="-16.49571" lon="-151.75824">
        <ele>80.888184</ele>
        <time>2012-05-16T00:43:56Z</time>
      </trkpt>
      <trkpt lat="-16.49567" lon="-151.7581">
        <ele>78.004028</ele>
        <time>2012-05-16T00:44:09Z</time>
      </trkpt>
      <trkpt lat="-16.4956" lon="-151.75794">
        <ele>75.60083</ele>
        <time>2012-05-16T00:44:23Z</time>
      </trkpt>
      <trkpt lat="-16.49557" lon="-151.75781">
        <ele>74.158813</ele>
        <time>2012-05-16T00:44:37Z</time>
      </trkpt>
      <trkpt lat="-16.49555" lon="-151.75762">
        <ele>71.755493</ele>
        <time>2012-05-16T00:44:53Z</time>
      </trkpt>
      <trkpt lat="-16.49553" lon="-151.75742">
        <ele>71.274902</ele>
        <time>2012-05-16T00:45:07Z</time>
      </trkpt>
      <trkpt lat="-16.49554" lon="-151.75723">
        <ele>72.716919</ele>
        <time>2012-05-16T00:45:20Z</time>
      </trkpt>
      <trkpt lat="-16.49555" lon="-151.75706">
        <ele>76.081421</ele>
        <time>2012-05-16T00:45:33Z</time>
      </trkpt>
      <trkpt lat="-16.49556" lon="-151.75687">
        <ele>78.004028</ele>
        <time>2012-05-16T00:45:48Z</time>
      </trkpt>
      <trkpt lat="-16.49559" lon="-151.75667">
        <ele>80.407471</ele>
        <time>2012-05-16T00:46:06Z</time>
      </trkpt>
      <trkpt lat="-16.49559" lon="-151.75651">
        <ele>83.771973</ele>
        <time>2012-05-16T00:46:21Z</time>
      </trkpt>
      <trkpt lat="-16.49556" lon="-151.75634">
        <ele>85.213989</ele>
        <time>2012-05-16T00:46:34Z</time>
      </trkpt>
      <trkpt lat="-16.49555" lon="-151.7563">
        <ele>85.213989</ele>
        <time>2012-05-16T00:46:37Z</time>
      </trkpt>
      <trkpt lat="-16.49552" lon="-151.75626">
        <ele>85.69458</ele>
        <time>2012-05-16T00:46:41Z</time>
      </trkpt>
      <trkpt lat="-16.49542" lon="-151.75614">
        <ele>86.175293</ele>
        <time>2012-05-16T00:46:52Z</time>
      </trkpt>
      <trkpt lat="-16.49528" lon="-151.75604">
        <ele>86.656006</ele>
        <time>2012-05-16T00:47:07Z</time>
      </trkpt>
      <trkpt lat="-16.49525" lon="-151.75602">
        <ele>87.136597</ele>
        <time>2012-05-16T00:47:10Z</time>
      </trkpt>
      <trkpt lat="-16.49512" lon="-151.75589">
        <ele>89.059326</ele>
        <time>2012-05-16T00:47:22Z</time>
      </trkpt>
      <trkpt lat="-16.49495" lon="-151.7557">
        <ele>90.501343</ele>
        <time>2012-05-16T00:47:39Z</time>
      </trkpt>
      <trkpt lat="-16.49491" lon="-151.75553">
        <ele>93.865845</ele>
        <time>2012-05-16T00:47:52Z</time>
      </trkpt>
      <trkpt lat="-16.49488" lon="-151.75548">
        <ele>94.346558</ele>
        <time>2012-05-16T00:47:57Z</time>
      </trkpt>
      <trkpt lat="-16.49477" lon="-151.75529">
        <ele>92.42395</ele>
        <time>2012-05-16T00:48:14Z</time>
      </trkpt>
      <trkpt lat="-16.49467" lon="-151.75516">
        <ele>92.904541</ele>
        <time>2012-05-16T00:48:26Z</time>
      </trkpt>
      <trkpt lat="-16.49465" lon="-151.75514">
        <ele>92.904541</ele>
        <time>2012-05-16T00:48:29Z</time>
      </trkpt>
      <trkpt lat="-16.49455" lon="-151.75499">
        <ele>91.462524</ele>
        <time>2012-05-16T00:48:42Z</time>
      </trkpt>
      <trkpt lat="-16.49452" lon="-151.75495">
        <ele>92.904541</ele>
        <time>2012-05-16T00:48:47Z</time>
      </trkpt>
      <trkpt lat="-16.49449" lon="-151.75492">
        <ele>89.539917</ele>
        <time>2012-05-16T00:48:51Z</time>
      </trkpt>
      <trkpt lat="-16.49446" lon="-151.75489">
        <ele>94.346558</ele>
        <time>2012-05-16T00:48:55Z</time>
      </trkpt>
      <trkpt lat="-16.49445" lon="-151.75488">
        <ele>89.059326</ele>
        <time>2012-05-16T00:48:57Z</time>
      </trkpt>
      <trkpt lat="-16.49443" lon="-151.75488">
        <ele>90.981934</ele>
        <time>2012-05-16T00:48:58Z</time>
      </trkpt>
      <trkpt lat="-16.49442" lon="-151.75487">
        <ele>91.462524</ele>
        <time>2012-05-16T00:49:00Z</time>
      </trkpt>
      <trkpt lat="-16.4944" lon="-151.75486">
        <ele>90.02063</ele>
        <time>2012-05-16T00:49:02Z</time>
      </trkpt>
      <trkpt lat="-16.49416" lon="-151.75481">
        <ele>88.098022</ele>
        <time>2012-05-16T00:49:20Z</time>
      </trkpt>
      <trkpt lat="-16.49395" lon="-151.75484">
        <ele>85.213989</ele>
        <time>2012-05-16T00:49:36Z</time>
      </trkpt>
      <trkpt lat="-16.49391" lon="-151.75484">
        <ele>83.771973</ele>
        <time>2012-05-16T00:49:40Z</time>
      </trkpt>
      <trkpt lat="-16.49367" lon="-151.75491">
        <ele>80.888184</ele>
        <time>2012-05-16T00:49:59Z</time>
      </trkpt>
      <trkpt lat="-16.49344" lon="-151.75494">
        <ele>78.484741</ele>
        <time>2012-05-16T00:50:17Z</time>
      </trkpt>
      <trkpt lat="-16.49321" lon="-151.75503">
        <ele>76.562134</ele>
        <time>2012-05-16T00:50:35Z</time>
      </trkpt>
      <trkpt lat="-16.49293" lon="-151.75509">
        <ele>76.081421</ele>
        <time>2012-05-16T00:50:55Z</time>
      </trkpt>
      <trkpt lat="-16.49265" lon="-151.75513">
        <ele>75.60083</ele>
        <time>2012-05-16T00:51:15Z</time>
      </trkpt>
      <trkpt lat="-16.49243" lon="-151.75512">
        <ele>78.484741</ele>
        <time>2012-05-16T00:51:32Z</time>
      </trkpt>
      <trkpt lat="-16.49236" lon="-151.7551">
        <ele>80.407471</ele>
        <time>2012-05-16T00:51:39Z</time>
      </trkpt>
      <trkpt lat="-16.49227" lon="-151.75507">
        <ele>83.291382</ele>
        <time>2012-05-16T00:51:48Z</time>
      </trkpt>
      <trkpt lat="-16.49216" lon="-151.75505">
        <ele>86.175293</ele>
        <time>2012-05-16T00:51:59Z</time>
      </trkpt>
      <trkpt lat="-16.49212" lon="-151.75505">
        <ele>87.136597</ele>
        <time>2012-05-16T00:52:03Z</time>
      </trkpt>
      <trkpt lat="-16.49199" lon="-151.75512">
        <ele>86.175293</ele>
        <time>2012-05-16T00:52:15Z</time>
      </trkpt>
      <trkpt lat="-16.49186" lon="-151.75523">
        <ele>83.291382</ele>
        <time>2012-05-16T00:52:32Z</time>
      </trkpt>
      <trkpt lat="-16.49177" lon="-151.75527">
        <ele>80.407471</ele>
        <time>2012-05-16T00:52:44Z</time>
      </trkpt>
      <trkpt lat="-16.49165" lon="-151.75533">
        <ele>77.523438</ele>
        <time>2012-05-16T00:52:59Z</time>
      </trkpt>
      <trkpt lat="-16.49162" lon="-151.75534">
        <ele>76.562134</ele>
        <time>2012-05-16T00:53:02Z</time>
      </trkpt>
      <trkpt lat="-16.49144" lon="-151.75539">
        <ele>73.678223</ele>
        <time>2012-05-16T00:53:19Z</time>
      </trkpt>
      <trkpt lat="-16.49134" lon="-151.7554">
        <ele>72.236206</ele>
        <time>2012-05-16T00:53:33Z</time>
      </trkpt>
      <trkpt lat="-16.49124" lon="-151.75544">
        <ele>70.313477</ele>
        <time>2012-05-16T00:53:45Z</time>
      </trkpt>
      <trkpt lat="-16.49111" lon="-151.75553">
        <ele>68.871582</ele>
        <time>2012-05-16T00:53:58Z</time>
      </trkpt>
      <trkpt lat="-16.49096" lon="-151.7556">
        <ele>67.910278</ele>
        <time>2012-05-16T00:54:15Z</time>
      </trkpt>
      <trkpt lat="-16.49082" lon="-151.75569">
        <ele>64.545654</ele>
        <time>2012-05-16T00:54:29Z</time>
      </trkpt>
      <trkpt lat="-16.49069" lon="-151.75573">
        <ele>62.142334</ele>
        <time>2012-05-16T00:54:45Z</time>
      </trkpt>
      <trkpt lat="-16.4906" lon="-151.75569">
        <ele>58.77771</ele>
        <time>2012-05-16T00:54:56Z</time>
      </trkpt>
      <trkpt lat="-16.49047" lon="-151.75569">
        <ele>55.413086</ele>
        <time>2012-05-16T00:55:11Z</time>
      </trkpt>
      <trkpt lat="-16.49034" lon="-151.75569">
        <ele>52.529175</ele>
        <time>2012-05-16T00:55:27Z</time>
      </trkpt>
      <trkpt lat="-16.49024" lon="-151.75568">
        <ele>49.645264</ele>
        <time>2012-05-16T00:55:38Z</time>
      </trkpt>
      <trkpt lat="-16.4901" lon="-151.75573">
        <ele>46.76123</ele>
        <time>2012-05-16T00:55:53Z</time>
      </trkpt>
      <trkpt lat="-16.48998" lon="-151.75573">
        <ele>44.358032</ele>
        <time>2012-05-16T00:56:08Z</time>
      </trkpt>
      <trkpt lat="-16.48983" lon="-151.75575">
        <ele>40.993408</ele>
        <time>2012-05-16T00:56:23Z</time>
      </trkpt>
      <trkpt lat="-16.48969" lon="-151.75575">
        <ele>39.55127</ele>
        <time>2012-05-16T00:56:39Z</time>
      </trkpt>
      <trkpt lat="-16.48967" lon="-151.7557">
        <ele>38.590088</ele>
        <time>2012-05-16T00:57:32Z</time>
      </trkpt>
      <trkpt lat="-16.48965" lon="-151.75568">
        <ele>39.070679</ele>
        <time>2012-05-16T00:58:09Z</time>
      </trkpt>
      <trkpt lat="-16.48965" lon="-151.75569">
        <ele>39.55127</ele>
        <time>2012-05-16T00:58:10Z</time>
      </trkpt>
      <trkpt lat="-16.48947" lon="-151.75575">
        <ele>36.186768</ele>
        <time>2012-05-16T00:58:20Z</time>
      </trkpt>
      <trkpt lat="-16.4894" lon="-151.75574">
        <ele>35.225464</ele>
        <time>2012-05-16T00:58:34Z</time>
      </trkpt>
      <trkpt lat="-16.48935" lon="-151.75575">
        <ele>34.744873</ele>
        <time>2012-05-16T00:58:39Z</time>
      </trkpt>
      <trkpt lat="-16.48911" lon="-151.75574">
        <ele>31.380127</ele>
        <time>2012-05-16T00:58:48Z</time>
      </trkpt>
      <trkpt lat="-16.489" lon="-151.75575">
        <ele>29.45752</ele>
        <time>2012-05-16T00:58:54Z</time>
      </trkpt>
      <trkpt lat="-16.48891" lon="-151.75577">
        <ele>26.092896</ele>
        <time>2012-05-16T00:59:01Z</time>
      </trkpt>
      <trkpt lat="-16.48888" lon="-151.75576">
        <ele>25.131714</ele>
        <time>2012-05-16T00:59:06Z</time>
      </trkpt>
      <trkpt lat="-16.48882" lon="-151.75569">
        <ele>24.651001</ele>
        <time>2012-05-16T00:59:11Z</time>
      </trkpt>
      <trkpt lat="-16.48884" lon="-151.7556">
        <ele>22.728271</ele>
        <time>2012-05-16T00:59:16Z</time>
      </trkpt>
      <trkpt lat="-16.48887" lon="-151.75551">
        <ele>21.766968</ele>
        <time>2012-05-16T00:59:21Z</time>
      </trkpt>
      <trkpt lat="-16.48892" lon="-151.75537">
        <ele>17.441162</ele>
        <time>2012-05-16T00:59:31Z</time>
      </trkpt>
      <trkpt lat="-16.48892" lon="-151.75535">
        <ele>16.479736</ele>
        <time>2012-05-16T00:59:33Z</time>
      </trkpt>
      <trkpt lat="-16.48894" lon="-151.75518">
        <ele>14.076416</ele>
        <time>2012-05-16T00:59:48Z</time>
      </trkpt>
      <trkpt lat="-16.48885" lon="-151.75503">
        <ele>13.115112</ele>
        <time>2012-05-16T01:00:01Z</time>
      </trkpt>
      <trkpt lat="-16.48883" lon="-151.75505">
        <ele>12.153809</ele>
        <time>2012-05-16T01:00:23Z</time>
      </trkpt>
      <trkpt lat="-16.48882" lon="-151.75504">
        <ele>12.634399</ele>
        <time>2012-05-16T01:00:43Z</time>
      </trkpt>
      <trkpt lat="-16.48882" lon="-151.75503">
        <ele>11.673218</ele>
        <time>2012-05-16T01:00:46Z</time>
      </trkpt>
      <trkpt lat="-16.48914" lon="-151.75477">
        <ele>12.634399</ele>
        <time>2012-05-16T01:01:00Z</time>
      </trkpt>
      <trkpt lat="-16.48956" lon="-151.75442">
        <ele>12.153809</ele>
        <time>2012-05-16T01:01:16Z</time>
      </trkpt>
      <trkpt lat="-16.48992" lon="-151.7541">
        <ele>12.153809</ele>
        <time>2012-05-16T01:01:29Z</time>
      </trkpt>
      <trkpt lat="-16.49032" lon="-151.75375">
        <ele>12.634399</ele>
        <time>2012-05-16T01:01:42Z</time>
      </trkpt>
      <trkpt lat="-16.49037" lon="-151.7537">
        <ele>12.153809</ele>
        <time>2012-05-16T01:01:44Z</time>
      </trkpt>
      <trkpt lat="-16.49087" lon="-151.75324">
        <ele>12.634399</ele>
        <time>2012-05-16T01:02:00Z</time>
      </trkpt>
      <trkpt lat="-16.49131" lon="-151.75271">
        <ele>12.153809</ele>
        <time>2012-05-16T01:02:16Z</time>
      </trkpt>
      <trkpt lat="-16.49172" lon="-151.75217">
        <ele>12.153809</ele>
        <time>2012-05-16T01:02:31Z</time>
      </trkpt>
      <trkpt lat="-16.49213" lon="-151.75162">
        <ele>12.634399</ele>
        <time>2012-05-16T01:02:47Z</time>
      </trkpt>
      <trkpt lat="-16.49248" lon="-151.75088">
        <ele>13.115112</ele>
        <time>2012-05-16T01:03:05Z</time>
      </trkpt>
      <trkpt lat="-16.49258" lon="-151.75043">
        <ele>12.634399</ele>
        <time>2012-05-16T01:03:15Z</time>
      </trkpt>
      <trkpt lat="-16.49259" lon="-151.75034">
        <ele>11.673218</ele>
        <time>2012-05-16T01:03:17Z</time>
      </trkpt>
      <trkpt lat="-16.4926" lon="-151.75013">
        <ele>12.634399</ele>
        <time>2012-05-16T01:03:22Z</time>
      </trkpt>
      <trkpt lat="-16.49256" lon="-151.74991">
        <ele>12.153809</ele>
        <time>2012-05-16T01:03:27Z</time>
      </trkpt>
      <trkpt lat="-16.49251" lon="-151.74979">
        <ele>13.115112</ele>
        <time>2012-05-16T01:03:30Z</time>
      </trkpt>
      <trkpt lat="-16.49242" lon="-151.74962">
        <ele>13.595825</ele>
        <time>2012-05-16T01:03:34Z</time>
      </trkpt>
      <trkpt lat="-16.49188" lon="-151.74897">
        <ele>12.634399</ele>
        <time>2012-05-16T01:03:52Z</time>
      </trkpt>
      <trkpt lat="-16.49166" lon="-151.74871">
        <ele>13.115112</ele>
        <time>2012-05-16T01:04:00Z</time>
      </trkpt>
      <trkpt lat="-16.49144" lon="-151.74846">
        <ele>12.153809</ele>
        <time>2012-05-16T01:04:08Z</time>
      </trkpt>
      <trkpt lat="-16.49128" lon="-151.74825">
        <ele>12.153809</ele>
        <time>2012-05-16T01:04:14Z</time>
      </trkpt>
      <trkpt lat="-16.49074" lon="-151.74757">
        <ele>11.673218</ele>
        <time>2012-05-16T01:04:33Z</time>
      </trkpt>
      <trkpt lat="-16.49034" lon="-151.74691">
        <ele>12.153809</ele>
        <time>2012-05-16T01:04:49Z</time>
      </trkpt>
      <trkpt lat="-16.4903" lon="-151.74683">
        <ele>12.153809</ele>
        <time>2012-05-16T01:04:51Z</time>
      </trkpt>
      <trkpt lat="-16.49019" lon="-151.74661">
        <ele>12.634399</ele>
        <time>2012-05-16T01:04:56Z</time>
      </trkpt>
      <trkpt lat="-16.48982" lon="-151.74593">
        <ele>12.153809</ele>
        <time>2012-05-16T01:05:12Z</time>
      </trkpt>
      <trkpt lat="-16.48973" lon="-151.74576">
        <ele>11.673218</ele>
        <time>2012-05-16T01:05:16Z</time>
      </trkpt>
      <trkpt lat="-16.48965" lon="-151.74563">
        <ele>11.673218</ele>
        <time>2012-05-16T01:05:19Z</time>
      </trkpt>
      <trkpt lat="-16.48955" lon="-151.74547">
        <ele>12.153809</ele>
        <time>2012-05-16T01:05:23Z</time>
      </trkpt>
      <trkpt lat="-16.48931" lon="-151.74505">
        <ele>12.634399</ele>
        <time>2012-05-16T01:05:33Z</time>
      </trkpt>
      <trkpt lat="-16.48912" lon="-151.74471">
        <ele>12.153809</ele>
        <time>2012-05-16T01:05:41Z</time>
      </trkpt>
      <trkpt lat="-16.48891" lon="-151.74433">
        <ele>12.153809</ele>
        <time>2012-05-16T01:05:50Z</time>
      </trkpt>
      <trkpt lat="-16.48848" lon="-151.74352">
        <ele>13.115112</ele>
        <time>2012-05-16T01:06:10Z</time>
      </trkpt>
      <trkpt lat="-16.48842" lon="-151.74345">
        <ele>12.634399</ele>
        <time>2012-05-16T01:06:12Z</time>
      </trkpt>
      <trkpt lat="-16.48776" lon="-151.74317">
        <ele>12.153809</ele>
        <time>2012-05-16T01:06:29Z</time>
      </trkpt>
      <trkpt lat="-16.48706" lon="-151.74294">
        <ele>11.673218</ele>
        <time>2012-05-16T01:06:47Z</time>
      </trkpt>
      <trkpt lat="-16.48665" lon="-151.74303">
        <ele>12.153809</ele>
        <time>2012-05-16T01:07:01Z</time>
      </trkpt>
      <trkpt lat="-16.48662" lon="-151.74305">
        <ele>8.308594</ele>
        <time>2012-05-16T01:07:02Z</time>
      </trkpt>
      <trkpt lat="-16.48659" lon="-151.74307">
        <ele>11.192505</ele>
        <time>2012-05-16T01:07:03Z</time>
      </trkpt>
      <trkpt lat="-16.48653" lon="-151.7431">
        <ele>14.557007</ele>
        <time>2012-05-16T01:07:05Z</time>
      </trkpt>
      <trkpt lat="-16.4865" lon="-151.74312">
        <ele>11.192505</ele>
        <time>2012-05-16T01:07:06Z</time>
      </trkpt>
      <trkpt lat="-16.48617" lon="-151.74334">
        <ele>11.673218</ele>
        <time>2012-05-16T01:07:18Z</time>
      </trkpt>
      <trkpt lat="-16.48586" lon="-151.74353">
        <ele>11.673218</ele>
        <time>2012-05-16T01:07:27Z</time>
      </trkpt>
      <trkpt lat="-16.4855" lon="-151.74375">
        <ele>11.192505</ele>
        <time>2012-05-16T01:07:37Z</time>
      </trkpt>
      <trkpt lat="-16.48485" lon="-151.74415">
        <ele>11.192505</ele>
        <time>2012-05-16T01:07:54Z</time>
      </trkpt>
      <trkpt lat="-16.48449" lon="-151.74468">
        <ele>12.153809</ele>
        <time>2012-05-16T01:08:09Z</time>
      </trkpt>
      <trkpt lat="-16.48446" lon="-151.74476">
        <ele>12.153809</ele>
        <time>2012-05-16T01:08:11Z</time>
      </trkpt>
      <trkpt lat="-16.48443" lon="-151.74494">
        <ele>12.153809</ele>
        <time>2012-05-16T01:08:15Z</time>
      </trkpt>
      <trkpt lat="-16.48437" lon="-151.74516">
        <ele>12.634399</ele>
        <time>2012-05-16T01:08:20Z</time>
      </trkpt>
      <trkpt lat="-16.4843" lon="-151.74537">
        <ele>14.076416</ele>
        <time>2012-05-16T01:08:25Z</time>
      </trkpt>
      <trkpt lat="-16.48421" lon="-151.74557">
        <ele>13.115112</ele>
        <time>2012-05-16T01:08:30Z</time>
      </trkpt>
      <trkpt lat="-16.48416" lon="-151.74564">
        <ele>12.634399</ele>
        <time>2012-05-16T01:08:32Z</time>
      </trkpt>
      <trkpt lat="-16.48412" lon="-151.74587">
        <ele>12.634399</ele>
        <time>2012-05-16T01:08:37Z</time>
      </trkpt>
      <trkpt lat="-16.48409" lon="-151.74596">
        <ele>12.634399</ele>
        <time>2012-05-16T01:08:39Z</time>
      </trkpt>
      <trkpt lat="-16.48405" lon="-151.74609">
        <ele>12.153809</ele>
        <time>2012-05-16T01:08:42Z</time>
      </trkpt>
      <trkpt lat="-16.48391" lon="-151.74635">
        <ele>11.673218</ele>
        <time>2012-05-16T01:08:48Z</time>
      </trkpt>
      <trkpt lat="-16.48369" lon="-151.74686">
        <ele>12.634399</ele>
        <time>2012-05-16T01:08:59Z</time>
      </trkpt>
      <trkpt lat="-16.48338" lon="-151.74747">
        <ele>10.231201</ele>
        <time>2012-05-16T01:09:12Z</time>
      </trkpt>
      <trkpt lat="-16.48291" lon="-151.7482">
        <ele>11.673218</ele>
        <time>2012-05-16T01:09:29Z</time>
      </trkpt>
      <trkpt lat="-16.48247" lon="-151.74888">
        <ele>10.711792</ele>
        <time>2012-05-16T01:09:46Z</time>
      </trkpt>
      <trkpt lat="-16.48225" lon="-151.74921">
        <ele>11.192505</ele>
        <time>2012-05-16T01:09:54Z</time>
      </trkpt>
      <trkpt lat="-16.48213" lon="-151.74937">
        <ele>10.711792</ele>
        <time>2012-05-16T01:09:58Z</time>
      </trkpt>
      <trkpt lat="-16.48183" lon="-151.74973">
        <ele>9.75061</ele>
        <time>2012-05-16T01:10:07Z</time>
      </trkpt>
      <trkpt lat="-16.48121" lon="-151.75026">
        <ele>10.231201</ele>
        <time>2012-05-16T01:10:23Z</time>
      </trkpt>
      <trkpt lat="-16.48114" lon="-151.75032">
        <ele>9.269897</ele>
        <time>2012-05-16T01:10:25Z</time>
      </trkpt>
      <trkpt lat="-16.48091" lon="-151.7505">
        <ele>10.711792</ele>
        <time>2012-05-16T01:10:31Z</time>
      </trkpt>
      <trkpt lat="-16.4804" lon="-151.75091">
        <ele>9.75061</ele>
        <time>2012-05-16T01:10:44Z</time>
      </trkpt>
      <trkpt lat="-16.48024" lon="-151.75109">
        <ele>9.75061</ele>
        <time>2012-05-16T01:10:49Z</time>
      </trkpt>
      <trkpt lat="-16.48009" lon="-151.75128">
        <ele>10.231201</ele>
        <time>2012-05-16T01:10:54Z</time>
      </trkpt>
      <trkpt lat="-16.47974" lon="-151.7518">
        <ele>10.231201</ele>
        <time>2012-05-16T01:11:07Z</time>
      </trkpt>
      <trkpt lat="-16.47926" lon="-151.75258">
        <ele>9.269897</ele>
        <time>2012-05-16T01:11:26Z</time>
      </trkpt>
      <trkpt lat="-16.47917" lon="-151.75277">
        <ele>9.269897</ele>
        <time>2012-05-16T01:11:30Z</time>
      </trkpt>
      <trkpt lat="-16.47908" lon="-151.75294">
        <ele>9.75061</ele>
        <time>2012-05-16T01:11:34Z</time>
      </trkpt>
      <trkpt lat="-16.47871" lon="-151.75376">
        <ele>9.269897</ele>
        <time>2012-05-16T01:11:52Z</time>
      </trkpt>
      <trkpt lat="-16.47858" lon="-151.75404">
        <ele>9.269897</ele>
        <time>2012-05-16T01:11:58Z</time>
      </trkpt>
      <trkpt lat="-16.47821" lon="-151.75485">
        <ele>9.269897</ele>
        <time>2012-05-16T01:12:16Z</time>
      </trkpt>
      <trkpt lat="-16.47811" lon="-151.7551">
        <ele>8.789185</ele>
        <time>2012-05-16T01:12:22Z</time>
      </trkpt>
      <trkpt lat="-16.47807" lon="-151.75518">
        <ele>8.789185</ele>
        <time>2012-05-16T01:12:24Z</time>
      </trkpt>
      <trkpt lat="-16.47778" lon="-151.75586">
        <ele>9.269897</ele>
        <time>2012-05-16T01:12:39Z</time>
      </trkpt>
      <trkpt lat="-16.47747" lon="-151.75662">
        <ele>9.269897</ele>
        <time>2012-05-16T01:12:55Z</time>
      </trkpt>
      <trkpt lat="-16.47715" lon="-151.75742">
        <ele>9.269897</ele>
        <time>2012-05-16T01:13:12Z</time>
      </trkpt>
      <trkpt lat="-16.47689" lon="-151.75809">
        <ele>8.789185</ele>
        <time>2012-05-16T01:13:26Z</time>
      </trkpt>
      <trkpt lat="-16.47667" lon="-151.75876">
        <ele>8.308594</ele>
        <time>2012-05-16T01:13:39Z</time>
      </trkpt>
      <trkpt lat="-16.47663" lon="-151.75891">
        <ele>8.789185</ele>
        <time>2012-05-16T01:13:42Z</time>
      </trkpt>
      <trkpt lat="-16.47642" lon="-151.75952">
        <ele>9.269897</ele>
        <time>2012-05-16T01:13:55Z</time>
      </trkpt>
      <trkpt lat="-16.47634" lon="-151.75976">
        <ele>9.269897</ele>
        <time>2012-05-16T01:14:00Z</time>
      </trkpt>
      <trkpt lat="-16.47629" lon="-151.75996">
        <ele>9.269897</ele>
        <time>2012-05-16T01:14:04Z</time>
      </trkpt>
      <trkpt lat="-16.47619" lon="-151.76028">
        <ele>8.308594</ele>
        <time>2012-05-16T01:14:11Z</time>
      </trkpt>
      <trkpt lat="-16.47605" lon="-151.76077">
        <ele>8.308594</ele>
        <time>2012-05-16T01:14:21Z</time>
      </trkpt>
      <trkpt lat="-16.47559" lon="-151.76164">
        <ele>8.789185</ele>
        <time>2012-05-16T01:14:40Z</time>
      </trkpt>
      <trkpt lat="-16.47556" lon="-151.76168">
        <ele>8.789185</ele>
        <time>2012-05-16T01:14:41Z</time>
      </trkpt>
      <trkpt lat="-16.47541" lon="-151.76188">
        <ele>9.269897</ele>
        <time>2012-05-16T01:14:46Z</time>
      </trkpt>
      <trkpt lat="-16.47513" lon="-151.76226">
        <ele>10.231201</ele>
        <time>2012-05-16T01:14:55Z</time>
      </trkpt>
      <trkpt lat="-16.47507" lon="-151.76234">
        <ele>9.269897</ele>
        <time>2012-05-16T01:14:57Z</time>
      </trkpt>
      <trkpt lat="-16.47488" lon="-151.76257">
        <ele>10.231201</ele>
        <time>2012-05-16T01:15:03Z</time>
      </trkpt>
      <trkpt lat="-16.47417" lon="-151.76297">
        <ele>9.75061</ele>
        <time>2012-05-16T01:15:20Z</time>
      </trkpt>
      <trkpt lat="-16.47406" lon="-151.763">
        <ele>9.75061</ele>
        <time>2012-05-16T01:15:22Z</time>
      </trkpt>
      <trkpt lat="-16.47353" lon="-151.76305">
        <ele>9.269897</ele>
        <time>2012-05-16T01:15:32Z</time>
      </trkpt>
      <trkpt lat="-16.47343" lon="-151.76304">
        <ele>9.269897</ele>
        <time>2012-05-16T01:15:34Z</time>
      </trkpt>
      <trkpt lat="-16.47285" lon="-151.76288">
        <ele>8.789185</ele>
        <time>2012-05-16T01:15:48Z</time>
      </trkpt>
      <trkpt lat="-16.47238" lon="-151.76267">
        <ele>8.789185</ele>
        <time>2012-05-16T01:15:59Z</time>
      </trkpt>
      <trkpt lat="-16.47168" lon="-151.76222">
        <ele>9.269897</ele>
        <time>2012-05-16T01:16:16Z</time>
      </trkpt>
      <trkpt lat="-16.4716" lon="-151.76217">
        <ele>10.231201</ele>
        <time>2012-05-16T01:16:18Z</time>
      </trkpt>
      <trkpt lat="-16.47108" lon="-151.76174">
        <ele>9.269897</ele>
        <time>2012-05-16T01:16:31Z</time>
      </trkpt>
      <trkpt lat="-16.47046" lon="-151.76097">
        <ele>9.269897</ele>
        <time>2012-05-16T01:16:50Z</time>
      </trkpt>
      <trkpt lat="-16.47043" lon="-151.76093">
        <ele>9.269897</ele>
        <time>2012-05-16T01:16:51Z</time>
      </trkpt>
      <trkpt lat="-16.47036" lon="-151.76074">
        <ele>8.789185</ele>
        <time>2012-05-16T01:16:55Z</time>
      </trkpt>
      <trkpt lat="-16.4703" lon="-151.76054">
        <ele>8.789185</ele>
        <time>2012-05-16T01:16:59Z</time>
      </trkpt>
      <trkpt lat="-16.47006" lon="-151.75964">
        <ele>9.75061</ele>
        <time>2012-05-16T01:17:18Z</time>
      </trkpt>
      <trkpt lat="-16.46996" lon="-151.75935">
        <ele>10.231201</ele>
        <time>2012-05-16T01:17:24Z</time>
      </trkpt>
      <trkpt lat="-16.46988" lon="-151.75845">
        <ele>10.231201</ele>
        <time>2012-05-16T01:17:41Z</time>
      </trkpt>
      <trkpt lat="-16.4699" lon="-151.75804">
        <ele>10.711792</ele>
        <time>2012-05-16T01:17:49Z</time>
      </trkpt>
      <trkpt lat="-16.47008" lon="-151.75725">
        <ele>10.231201</ele>
        <time>2012-05-16T01:18:05Z</time>
      </trkpt>
      <trkpt lat="-16.47013" lon="-151.75696">
        <ele>9.269897</ele>
        <time>2012-05-16T01:18:11Z</time>
      </trkpt>
      <trkpt lat="-16.47025" lon="-151.75633">
        <ele>8.308594</ele>
        <time>2012-05-16T01:18:24Z</time>
      </trkpt>
      <trkpt lat="-16.47029" lon="-151.75613">
        <ele>8.308594</ele>
        <time>2012-05-16T01:18:28Z</time>
      </trkpt>
      <trkpt lat="-16.47033" lon="-151.75565">
        <ele>7.827881</ele>
        <time>2012-05-16T01:18:37Z</time>
      </trkpt>
      <trkpt lat="-16.47016" lon="-151.75496">
        <ele>8.308594</ele>
        <time>2012-05-16T01:18:51Z</time>
      </trkpt>
      <trkpt lat="-16.47012" lon="-151.75487">
        <ele>8.789185</ele>
        <time>2012-05-16T01:18:53Z</time>
      </trkpt>
      <trkpt lat="-16.46953" lon="-151.75444">
        <ele>9.269897</ele>
        <time>2012-05-16T01:19:08Z</time>
      </trkpt>
      <trkpt lat="-16.46927" lon="-151.75433">
        <ele>9.269897</ele>
        <time>2012-05-16T01:19:14Z</time>
      </trkpt>
      <trkpt lat="-16.46907" lon="-151.75429">
        <ele>9.269897</ele>
        <time>2012-05-16T01:19:18Z</time>
      </trkpt>
      <trkpt lat="-16.46828" lon="-151.75419">
        <ele>9.75061</ele>
        <time>2012-05-16T01:19:34Z</time>
      </trkpt>
      <trkpt lat="-16.46774" lon="-151.7541">
        <ele>10.231201</ele>
        <time>2012-05-16T01:19:45Z</time>
      </trkpt>
      <trkpt lat="-16.46718" lon="-151.75395">
        <ele>9.269897</ele>
        <time>2012-05-16T01:19:57Z</time>
      </trkpt>
      <trkpt lat="-16.46699" lon="-151.75374">
        <ele>11.192505</ele>
        <time>2012-05-16T01:20:03Z</time>
      </trkpt>
      <trkpt lat="-16.46687" lon="-151.75312">
        <ele>9.75061</ele>
        <time>2012-05-16T01:20:16Z</time>
      </trkpt>
      <trkpt lat="-16.46665" lon="-151.75231">
        <ele>9.75061</ele>
        <time>2012-05-16T01:20:34Z</time>
      </trkpt>
      <trkpt lat="-16.46662" lon="-151.75222">
        <ele>9.269897</ele>
        <time>2012-05-16T01:20:36Z</time>
      </trkpt>
      <trkpt lat="-16.46656" lon="-151.75209">
        <ele>9.75061</ele>
        <time>2012-05-16T01:20:39Z</time>
      </trkpt>
      <trkpt lat="-16.46644" lon="-151.7519">
        <ele>8.789185</ele>
        <time>2012-05-16T01:20:44Z</time>
      </trkpt>
      <trkpt lat="-16.46604" lon="-151.75132">
        <ele>8.789185</ele>
        <time>2012-05-16T01:21:02Z</time>
      </trkpt>
      <trkpt lat="-16.46579" lon="-151.75067">
        <ele>8.789185</ele>
        <time>2012-05-16T01:21:20Z</time>
      </trkpt>
      <trkpt lat="-16.46573" lon="-151.75024">
        <ele>9.269897</ele>
        <time>2012-05-16T01:21:33Z</time>
      </trkpt>
      <trkpt lat="-16.46575" lon="-151.74961">
        <ele>9.269897</ele>
        <time>2012-05-16T01:21:48Z</time>
      </trkpt>
      <trkpt lat="-16.4656" lon="-151.74879">
        <ele>9.269897</ele>
        <time>2012-05-16T01:22:07Z</time>
      </trkpt>
      <trkpt lat="-16.46557" lon="-151.74866">
        <ele>8.789185</ele>
        <time>2012-05-16T01:22:10Z</time>
      </trkpt>
      <trkpt lat="-16.46544" lon="-151.74801">
        <ele>8.789185</ele>
        <time>2012-05-16T01:22:24Z</time>
      </trkpt>
      <trkpt lat="-16.46544" lon="-151.74772">
        <ele>8.789185</ele>
        <time>2012-05-16T01:22:30Z</time>
      </trkpt>
      <trkpt lat="-16.46544" lon="-151.74738">
        <ele>8.789185</ele>
        <time>2012-05-16T01:22:37Z</time>
      </trkpt>
      <trkpt lat="-16.46539" lon="-151.74668">
        <ele>9.269897</ele>
        <time>2012-05-16T01:22:52Z</time>
      </trkpt>
      <trkpt lat="-16.4652" lon="-151.7462">
        <ele>9.269897</ele>
        <time>2012-05-16T01:23:03Z</time>
      </trkpt>
      <trkpt lat="-16.46497" lon="-151.74578">
        <ele>8.789185</ele>
        <time>2012-05-16T01:23:13Z</time>
      </trkpt>
      <trkpt lat="-16.46487" lon="-151.74563">
        <ele>9.75061</ele>
        <time>2012-05-16T01:23:17Z</time>
      </trkpt>
      <trkpt lat="-16.46464" lon="-151.74529">
        <ele>9.75061</ele>
        <time>2012-05-16T01:23:26Z</time>
      </trkpt>
      <trkpt lat="-16.46458" lon="-151.74516">
        <ele>9.75061</ele>
        <time>2012-05-16T01:23:29Z</time>
      </trkpt>
      <trkpt lat="-16.46459" lon="-151.74478">
        <ele>9.75061</ele>
        <time>2012-05-16T01:23:38Z</time>
      </trkpt>
      <trkpt lat="-16.465" lon="-151.74457">
        <ele>9.269897</ele>
        <time>2012-05-16T01:23:49Z</time>
      </trkpt>
      <trkpt lat="-16.46579" lon="-151.74479">
        <ele>8.308594</ele>
        <time>2012-05-16T01:24:06Z</time>
      </trkpt>
      <trkpt lat="-16.46649" lon="-151.74511">
        <ele>9.269897</ele>
        <time>2012-05-16T01:24:22Z</time>
      </trkpt>
      <trkpt lat="-16.46729" lon="-151.74536">
        <ele>9.269897</ele>
        <time>2012-05-16T01:24:40Z</time>
      </trkpt>
      <trkpt lat="-16.46799" lon="-151.74553">
        <ele>9.75061</ele>
        <time>2012-05-16T01:24:55Z</time>
      </trkpt>
      <trkpt lat="-16.46886" lon="-151.74583">
        <ele>9.269897</ele>
        <time>2012-05-16T01:25:14Z</time>
      </trkpt>
      <trkpt lat="-16.46932" lon="-151.74597">
        <ele>9.75061</ele>
        <time>2012-05-16T01:25:24Z</time>
      </trkpt>
      <trkpt lat="-16.47006" lon="-151.7458">
        <ele>8.789185</ele>
        <time>2012-05-16T01:25:39Z</time>
      </trkpt>
      <trkpt lat="-16.47083" lon="-151.74552">
        <ele>8.308594</ele>
        <time>2012-05-16T01:25:56Z</time>
      </trkpt>
      <trkpt lat="-16.47153" lon="-151.74526">
        <ele>7.827881</ele>
        <time>2012-05-16T01:26:11Z</time>
      </trkpt>
      <trkpt lat="-16.47236" lon="-151.74491">
        <ele>7.827881</ele>
        <time>2012-05-16T01:26:29Z</time>
      </trkpt>
      <trkpt lat="-16.47302" lon="-151.74446">
        <ele>8.789185</ele>
        <time>2012-05-16T01:26:45Z</time>
      </trkpt>
      <trkpt lat="-16.47339" lon="-151.74411">
        <ele>8.308594</ele>
        <time>2012-05-16T01:26:55Z</time>
      </trkpt>
      <trkpt lat="-16.47365" lon="-151.74342">
        <ele>7.827881</ele>
        <time>2012-05-16T01:27:10Z</time>
      </trkpt>
      <trkpt lat="-16.47377" lon="-151.74267">
        <ele>7.827881</ele>
        <time>2012-05-16T01:27:25Z</time>
      </trkpt>
      <trkpt lat="-16.47368" lon="-151.7419">
        <ele>7.827881</ele>
        <time>2012-05-16T01:27:41Z</time>
      </trkpt>
      <trkpt lat="-16.47366" lon="-151.74176">
        <ele>7.827881</ele>
        <time>2012-05-16T01:27:44Z</time>
      </trkpt>
      <trkpt lat="-16.47354" lon="-151.74101">
        <ele>8.308594</ele>
        <time>2012-05-16T01:28:00Z</time>
      </trkpt>
      <trkpt lat="-16.47352" lon="-151.74063">
        <ele>8.308594</ele>
        <time>2012-05-16T01:28:08Z</time>
      </trkpt>
      <trkpt lat="-16.47371" lon="-151.74039">
        <ele>8.789185</ele>
        <time>2012-05-16T01:28:15Z</time>
      </trkpt>
      <trkpt lat="-16.47398" lon="-151.74029">
        <ele>8.308594</ele>
        <time>2012-05-16T01:28:21Z</time>
      </trkpt>
      <trkpt lat="-16.47474" lon="-151.74007">
        <ele>8.308594</ele>
        <time>2012-05-16T01:28:38Z</time>
      </trkpt>
      <trkpt lat="-16.47556" lon="-151.73967">
        <ele>8.789185</ele>
        <time>2012-05-16T01:28:57Z</time>
      </trkpt>
      <trkpt lat="-16.4756" lon="-151.73965">
        <ele>8.789185</ele>
        <time>2012-05-16T01:28:58Z</time>
      </trkpt>
      <trkpt lat="-16.47593" lon="-151.73945">
        <ele>8.308594</ele>
        <time>2012-05-16T01:29:06Z</time>
      </trkpt>
      <trkpt lat="-16.47658" lon="-151.73889">
        <ele>7.827881</ele>
        <time>2012-05-16T01:29:24Z</time>
      </trkpt>
      <trkpt lat="-16.4766" lon="-151.73888">
        <ele>7.827881</ele>
        <time>2012-05-16T01:29:25Z</time>
      </trkpt>
      <trkpt lat="-16.47654" lon="-151.7389">
        <ele>8.789185</ele>
        <time>2012-05-16T01:29:30Z</time>
      </trkpt>
      <trkpt lat="-16.4763" lon="-151.73904">
        <ele>7.827881</ele>
        <time>2012-05-16T01:29:43Z</time>
      </trkpt>
      <trkpt lat="-16.47636" lon="-151.73909">
        <ele>3.982666</ele>
        <time>2012-05-16T01:30:45Z</time>
      </trkpt>
      <trkpt lat="-16.47636" lon="-151.73909">
        <ele>5.905273</ele>
        <time>2012-05-16T01:30:46Z</time>
      </trkpt>
      <trkpt lat="-16.47636" lon="-151.73908">
        <ele>8.789185</ele>
        <time>2012-05-16T01:30:48Z</time>
      </trkpt>
      <trkpt lat="-16.47636" lon="-151.73908">
        <ele>8.789185</ele>
        <time>2012-05-16T01:30:49Z</time>
      </trkpt>
      <trkpt lat="-16.47631" lon="-151.73902">
        <ele>7.827881</ele>
        <time>2012-05-16T01:31:01Z</time>
      </trkpt>
      <trkpt lat="-16.47631" lon="-151.73905">
        <ele>7.347168</ele>
        <time>2012-05-16T01:31:15Z</time>
      </trkpt>
      <trkpt lat="-16.47632" lon="-151.73905">
        <ele>7.827881</ele>
        <time>2012-05-16T01:31:31Z</time>
      </trkpt>
      <trkpt lat="-16.47632" lon="-151.73905">
        <ele>7.827881</ele>
        <time>2012-05-16T01:31:32Z</time>
      </trkpt>
      <trkpt lat="-16.47628" lon="-151.73904">
        <ele>7.827881</ele>
        <time>2012-05-16T01:31:55Z</time>
      </trkpt>
      <trkpt lat="-16.47638" lon="-151.7391">
        <ele>11.192505</ele>
        <time>2012-05-16T01:32:23Z</time>
      </trkpt>
      <trkpt lat="-16.47635" lon="-151.7391">
        <ele>4.943848</ele>
        <time>2012-05-16T01:32:32Z</time>
      </trkpt>
      <trkpt lat="-16.47635" lon="-151.7391">
        <ele>6.385864</ele>
        <time>2012-05-16T01:32:33Z</time>
      </trkpt>
      <trkpt lat="-16.47634" lon="-151.73909">
        <ele>9.75061</ele>
        <time>2012-05-16T01:32:34Z</time>
      </trkpt>
      <trkpt lat="-16.47634" lon="-151.73909">
        <ele>9.269897</ele>
        <time>2012-05-16T01:32:35Z</time>
      </trkpt>
      <trkpt lat="-16.47625" lon="-151.73905">
        <ele>7.827881</ele>
        <time>2012-05-16T01:33:12Z</time>
      </trkpt>
      <trkpt lat="-16.47629" lon="-151.73904">
        <ele>8.789185</ele>
        <time>2012-05-16T01:34:04Z</time>
      </trkpt>
      <trkpt lat="-16.47625" lon="-151.73903">
        <ele>9.269897</ele>
        <time>2012-05-16T01:34:47Z</time>
      </trkpt>
      <trkpt lat="-16.47625" lon="-151.73903">
        <ele>9.269897</ele>
        <time>2012-05-16T01:35:51Z</time>
      </trkpt>
      <trkpt lat="-16.47633" lon="-151.73905">
        <ele>9.269897</ele>
        <time>2012-05-16T01:36:00Z</time>
      </trkpt>
      <trkpt lat="-16.4764" lon="-151.73906">
        <ele>9.75061</ele>
        <time>2012-05-16T01:36:05Z</time>
      </trkpt>
      <trkpt lat="-16.47672" lon="-151.73872">
        <ele>9.75061</ele>
        <time>2012-05-16T01:36:20Z</time>
      </trkpt>
      <trkpt lat="-16.47677" lon="-151.73861">
        <ele>9.269897</ele>
        <time>2012-05-16T01:36:24Z</time>
      </trkpt>
      <trkpt lat="-16.4768" lon="-151.73858">
        <ele>9.75061</ele>
        <time>2012-05-16T01:36:37Z</time>
      </trkpt>
      <trkpt lat="-16.47676" lon="-151.73866">
        <ele>9.269897</ele>
        <time>2012-05-16T01:36:55Z</time>
      </trkpt>
      <trkpt lat="-16.47677" lon="-151.73866">
        <ele>9.75061</ele>
        <time>2012-05-16T01:37:14Z</time>
      </trkpt>
      <trkpt lat="-16.47677" lon="-151.73865">
        <ele>9.75061</ele>
        <time>2012-05-16T01:37:38Z</time>
      </trkpt>
      <trkpt lat="-16.4768" lon="-151.73868">
        <ele>9.269897</ele>
        <time>2012-05-16T01:38:24Z</time>
      </trkpt>
      <trkpt lat="-16.47679" lon="-151.73866">
        <ele>9.75061</ele>
        <time>2012-05-16T01:39:08Z</time>
      </trkpt>
      <trkpt lat="-16.47679" lon="-151.73864">
        <ele>11.192505</ele>
        <time>2012-05-16T01:39:35Z</time>
      </trkpt>
      <trkpt lat="-16.47677" lon="-151.73863">
        <ele>10.711792</ele>
        <time>2012-05-16T01:39:44Z</time>
      </trkpt>
      <trkpt lat="-16.47685" lon="-151.73839">
        <ele>11.192505</ele>
        <time>2012-05-16T01:39:56Z</time>
      </trkpt>
      <trkpt lat="-16.47686" lon="-151.7379">
        <ele>10.711792</ele>
        <time>2012-05-16T01:40:10Z</time>
      </trkpt>
      <trkpt lat="-16.47682" lon="-151.73738">
        <ele>11.192505</ele>
        <time>2012-05-16T01:40:22Z</time>
      </trkpt>
      <trkpt lat="-16.47677" lon="-151.73726">
        <ele>12.153809</ele>
        <time>2012-05-16T01:40:25Z</time>
      </trkpt>
      <trkpt lat="-16.47624" lon="-151.73673">
        <ele>11.192505</ele>
        <time>2012-05-16T01:40:41Z</time>
      </trkpt>
      <trkpt lat="-16.47562" lon="-151.73623">
        <ele>11.673218</ele>
        <time>2012-05-16T01:40:57Z</time>
      </trkpt>
      <trkpt lat="-16.47502" lon="-151.73568">
        <ele>11.673218</ele>
        <time>2012-05-16T01:41:13Z</time>
      </trkpt>
      <trkpt lat="-16.4746" lon="-151.73514">
        <ele>11.673218</ele>
        <time>2012-05-16T01:41:27Z</time>
      </trkpt>
      <trkpt lat="-16.47472" lon="-151.73477">
        <ele>10.711792</ele>
        <time>2012-05-16T01:41:36Z</time>
      </trkpt>
      <trkpt lat="-16.47481" lon="-151.73474">
        <ele>9.75061</ele>
        <time>2012-05-16T01:41:38Z</time>
      </trkpt>
      <trkpt lat="-16.47486" lon="-151.73473">
        <ele>10.231201</ele>
        <time>2012-05-16T01:41:39Z</time>
      </trkpt>
      <trkpt lat="-16.475" lon="-151.7347">
        <ele>10.711792</ele>
        <time>2012-05-16T01:41:42Z</time>
      </trkpt>
      <trkpt lat="-16.47559" lon="-151.73457">
        <ele>11.673218</ele>
        <time>2012-05-16T01:41:56Z</time>
      </trkpt>
      <trkpt lat="-16.47574" lon="-151.73451">
        <ele>11.192505</ele>
        <time>2012-05-16T01:42:00Z</time>
      </trkpt>
      <trkpt lat="-16.47648" lon="-151.73416">
        <ele>11.673218</ele>
        <time>2012-05-16T01:42:17Z</time>
      </trkpt>
      <trkpt lat="-16.47719" lon="-151.73389">
        <ele>12.634399</ele>
        <time>2012-05-16T01:42:33Z</time>
      </trkpt>
      <trkpt lat="-16.47793" lon="-151.73377">
        <ele>13.115112</ele>
        <time>2012-05-16T01:42:49Z</time>
      </trkpt>
      <trkpt lat="-16.47814" lon="-151.73375">
        <ele>13.115112</ele>
        <time>2012-05-16T01:42:53Z</time>
      </trkpt>
      <trkpt lat="-16.47906" lon="-151.73358">
        <ele>13.115112</ele>
        <time>2012-05-16T01:43:12Z</time>
      </trkpt>
      <trkpt lat="-16.47985" lon="-151.73324">
        <ele>13.595825</ele>
        <time>2012-05-16T01:43:29Z</time>
      </trkpt>
      <trkpt lat="-16.47997" lon="-151.73316">
        <ele>13.115112</ele>
        <time>2012-05-16T01:43:32Z</time>
      </trkpt>
      <trkpt lat="-16.48053" lon="-151.73262">
        <ele>12.634399</ele>
        <time>2012-05-16T01:43:48Z</time>
      </trkpt>
      <trkpt lat="-16.48069" lon="-151.73225">
        <ele>13.595825</ele>
        <time>2012-05-16T01:43:56Z</time>
      </trkpt>
      <trkpt lat="-16.4807" lon="-151.73203">
        <ele>13.595825</ele>
        <time>2012-05-16T01:44:01Z</time>
      </trkpt>
      <trkpt lat="-16.48043" lon="-151.7313">
        <ele>13.595825</ele>
        <time>2012-05-16T01:44:18Z</time>
      </trkpt>
      <trkpt lat="-16.48031" lon="-151.73069">
        <ele>14.076416</ele>
        <time>2012-05-16T01:44:32Z</time>
      </trkpt>
      <trkpt lat="-16.48025" lon="-151.72964">
        <ele>13.115112</ele>
        <time>2012-05-16T01:44:54Z</time>
      </trkpt>
      <trkpt lat="-16.48023" lon="-151.72885">
        <ele>13.595825</ele>
        <time>2012-05-16T01:45:10Z</time>
      </trkpt>
      <trkpt lat="-16.48029" lon="-151.72793">
        <ele>13.595825</ele>
        <time>2012-05-16T01:45:30Z</time>
      </trkpt>
      <trkpt lat="-16.48029" lon="-151.72746">
        <ele>14.076416</ele>
        <time>2012-05-16T01:45:40Z</time>
      </trkpt>
      <trkpt lat="-16.48022" lon="-151.72717">
        <ele>13.115112</ele>
        <time>2012-05-16T01:45:46Z</time>
      </trkpt>
      <trkpt lat="-16.48022" lon="-151.7263">
        <ele>13.115112</ele>
        <time>2012-05-16T01:46:03Z</time>
      </trkpt>
      <trkpt lat="-16.48027" lon="-151.72564">
        <ele>13.115112</ele>
        <time>2012-05-16T01:46:16Z</time>
      </trkpt>
      <trkpt lat="-16.48026" lon="-151.72543">
        <ele>13.595825</ele>
        <time>2012-05-16T01:46:20Z</time>
      </trkpt>
      <trkpt lat="-16.48005" lon="-151.72462">
        <ele>13.115112</ele>
        <time>2012-05-16T01:46:37Z</time>
      </trkpt>
      <trkpt lat="-16.47968" lon="-151.7237">
        <ele>13.595825</ele>
        <time>2012-05-16T01:46:57Z</time>
      </trkpt>
      <trkpt lat="-16.47963" lon="-151.72356">
        <ele>13.595825</ele>
        <time>2012-05-16T01:47:00Z</time>
      </trkpt>
      <trkpt lat="-16.47955" lon="-151.72264">
        <ele>13.595825</ele>
        <time>2012-05-16T01:47:18Z</time>
      </trkpt>
      <trkpt lat="-16.47962" lon="-151.72206">
        <ele>13.595825</ele>
        <time>2012-05-16T01:47:30Z</time>
      </trkpt>
      <trkpt lat="-16.48016" lon="-151.72147">
        <ele>14.076416</ele>
        <time>2012-05-16T01:47:46Z</time>
      </trkpt>
      <trkpt lat="-16.48037" lon="-151.72126">
        <ele>14.076416</ele>
        <time>2012-05-16T01:47:52Z</time>
      </trkpt>
      <trkpt lat="-16.48115" lon="-151.72056">
        <ele>13.595825</ele>
        <time>2012-05-16T01:48:13Z</time>
      </trkpt>
      <trkpt lat="-16.48172" lon="-151.71997">
        <ele>13.115112</ele>
        <time>2012-05-16T01:48:30Z</time>
      </trkpt>
      <trkpt lat="-16.48227" lon="-151.71939">
        <ele>13.115112</ele>
        <time>2012-05-16T01:48:46Z</time>
      </trkpt>
      <trkpt lat="-16.48234" lon="-151.71931">
        <ele>13.595825</ele>
        <time>2012-05-16T01:48:48Z</time>
      </trkpt>
      <trkpt lat="-16.48241" lon="-151.71917">
        <ele>13.595825</ele>
        <time>2012-05-16T01:48:51Z</time>
      </trkpt>
      <trkpt lat="-16.48248" lon="-151.71896">
        <ele>14.076416</ele>
        <time>2012-05-16T01:48:55Z</time>
      </trkpt>
      <trkpt lat="-16.48254" lon="-151.71856">
        <ele>13.595825</ele>
        <time>2012-05-16T01:49:03Z</time>
      </trkpt>
      <trkpt lat="-16.48259" lon="-151.71841">
        <ele>14.557007</ele>
        <time>2012-05-16T01:49:06Z</time>
      </trkpt>
      <trkpt lat="-16.48269" lon="-151.71824">
        <ele>14.557007</ele>
        <time>2012-05-16T01:49:10Z</time>
      </trkpt>
      <trkpt lat="-16.48306" lon="-151.7179">
        <ele>14.557007</ele>
        <time>2012-05-16T01:49:20Z</time>
      </trkpt>
      <trkpt lat="-16.4834" lon="-151.71796">
        <ele>11.673218</ele>
        <time>2012-05-16T01:49:28Z</time>
      </trkpt>
      <trkpt lat="-16.48347" lon="-151.71806">
        <ele>12.153809</ele>
        <time>2012-05-16T01:49:31Z</time>
      </trkpt>
      <trkpt lat="-16.48369" lon="-151.71863">
        <ele>12.634399</ele>
        <time>2012-05-16T01:49:43Z</time>
      </trkpt>
      <trkpt lat="-16.48377" lon="-151.71879">
        <ele>12.153809</ele>
        <time>2012-05-16T01:49:46Z</time>
      </trkpt>
      <trkpt lat="-16.48384" lon="-151.71894">
        <ele>12.153809</ele>
        <time>2012-05-16T01:49:49Z</time>
      </trkpt>
      <trkpt lat="-16.4841" lon="-151.71936">
        <ele>12.634399</ele>
        <time>2012-05-16T01:49:59Z</time>
      </trkpt>
      <trkpt lat="-16.48431" lon="-151.71956">
        <ele>12.634399</ele>
        <time>2012-05-16T01:50:05Z</time>
      </trkpt>
      <trkpt lat="-16.48491" lon="-151.72002">
        <ele>13.115112</ele>
        <time>2012-05-16T01:50:20Z</time>
      </trkpt>
      <trkpt lat="-16.48545" lon="-151.72033">
        <ele>13.115112</ele>
        <time>2012-05-16T01:50:36Z</time>
      </trkpt>
      <trkpt lat="-16.48608" lon="-151.72068">
        <ele>13.595825</ele>
        <time>2012-05-16T01:50:53Z</time>
      </trkpt>
      <trkpt lat="-16.48699" lon="-151.72109">
        <ele>13.595825</ele>
        <time>2012-05-16T01:51:13Z</time>
      </trkpt>
      <trkpt lat="-16.48777" lon="-151.72122">
        <ele>15.03772</ele>
        <time>2012-05-16T01:51:29Z</time>
      </trkpt>
      <trkpt lat="-16.48793" lon="-151.72129">
        <ele>16.960449</ele>
        <time>2012-05-16T01:51:34Z</time>
      </trkpt>
      <trkpt lat="-16.48795" lon="-151.72131">
        <ele>18.402344</ele>
        <time>2012-05-16T01:51:35Z</time>
      </trkpt>
      <trkpt lat="-16.48793" lon="-151.72153">
        <ele>20.324951</ele>
        <time>2012-05-16T01:51:44Z</time>
      </trkpt>
      <trkpt lat="-16.48788" lon="-151.72169">
        <ele>22.728271</ele>
        <time>2012-05-16T01:51:51Z</time>
      </trkpt>
      <trkpt lat="-16.48794" lon="-151.72173">
        <ele>23.689575</ele>
        <time>2012-05-16T01:51:55Z</time>
      </trkpt>
      <trkpt lat="-16.48802" lon="-151.72172">
        <ele>25.131714</ele>
        <time>2012-05-16T01:52:01Z</time>
      </trkpt>
      <trkpt lat="-16.48831" lon="-151.72137">
        <ele>27.534912</ele>
        <time>2012-05-16T01:52:21Z</time>
      </trkpt>
      <trkpt lat="-16.48856" lon="-151.72108">
        <ele>31.380127</ele>
        <time>2012-05-16T01:52:38Z</time>
      </trkpt>
      <trkpt lat="-16.48871" lon="-151.72094">
        <ele>33.783447</ele>
        <time>2012-05-16T01:52:47Z</time>
      </trkpt>
      <trkpt lat="-16.4889" lon="-151.72077">
        <ele>35.706055</ele>
        <time>2012-05-16T01:53:02Z</time>
      </trkpt>
      <trkpt lat="-16.4891" lon="-151.72081">
        <ele>35.706055</ele>
        <time>2012-05-16T01:53:16Z</time>
      </trkpt>
      <trkpt lat="-16.48921" lon="-151.72092">
        <ele>35.225464</ele>
        <time>2012-05-16T01:53:21Z</time>
      </trkpt>
      <trkpt lat="-16.48924" lon="-151.72106">
        <ele>33.783447</ele>
        <time>2012-05-16T01:53:24Z</time>
      </trkpt>
      <trkpt lat="-16.48925" lon="-151.72135">
        <ele>29.93811</ele>
        <time>2012-05-16T01:53:28Z</time>
      </trkpt>
      <trkpt lat="-16.48927" lon="-151.72153">
        <ele>29.45752</ele>
        <time>2012-05-16T01:53:30Z</time>
      </trkpt>
      <trkpt lat="-16.48934" lon="-151.72179">
        <ele>27.534912</ele>
        <time>2012-05-16T01:53:33Z</time>
      </trkpt>
      <trkpt lat="-16.48939" lon="-151.72199">
        <ele>25.612305</ele>
        <time>2012-05-16T01:53:35Z</time>
      </trkpt>
      <trkpt lat="-16.48947" lon="-151.72242">
        <ele>21.286377</ele>
        <time>2012-05-16T01:53:39Z</time>
      </trkpt>
      <trkpt lat="-16.48951" lon="-151.72277">
        <ele>18.883057</ele>
        <time>2012-05-16T01:53:42Z</time>
      </trkpt>
      <trkpt lat="-16.48955" lon="-151.72313">
        <ele>15.999023</ele>
        <time>2012-05-16T01:53:45Z</time>
      </trkpt>
      <trkpt lat="-16.48974" lon="-151.72377">
        <ele>14.557007</ele>
        <time>2012-05-16T01:53:51Z</time>
      </trkpt>
      <trkpt lat="-16.48982" lon="-151.72413">
        <ele>13.595825</ele>
        <time>2012-05-16T01:53:55Z</time>
      </trkpt>
      <trkpt lat="-16.48998" lon="-151.72441">
        <ele>14.076416</ele>
        <time>2012-05-16T01:53:59Z</time>
      </trkpt>
      <trkpt lat="-16.49065" lon="-151.72482">
        <ele>13.595825</ele>
        <time>2012-05-16T01:54:12Z</time>
      </trkpt>
      <trkpt lat="-16.49131" lon="-151.725">
        <ele>13.595825</ele>
        <time>2012-05-16T01:54:28Z</time>
      </trkpt>
      <trkpt lat="-16.49177" lon="-151.72518">
        <ele>13.115112</ele>
        <time>2012-05-16T01:54:41Z</time>
      </trkpt>
      <trkpt lat="-16.49233" lon="-151.72521">
        <ele>13.115112</ele>
        <time>2012-05-16T01:54:55Z</time>
      </trkpt>
      <trkpt lat="-16.49308" lon="-151.72508">
        <ele>14.557007</ele>
        <time>2012-05-16T01:55:10Z</time>
      </trkpt>
      <trkpt lat="-16.4936" lon="-151.72471">
        <ele>14.076416</ele>
        <time>2012-05-16T01:55:23Z</time>
      </trkpt>
      <trkpt lat="-16.49402" lon="-151.72412">
        <ele>15.03772</ele>
        <time>2012-05-16T01:55:40Z</time>
      </trkpt>
      <trkpt lat="-16.49441" lon="-151.7237">
        <ele>15.03772</ele>
        <time>2012-05-16T01:55:56Z</time>
      </trkpt>
      <trkpt lat="-16.49483" lon="-151.72322">
        <ele>16.479736</ele>
        <time>2012-05-16T01:56:12Z</time>
      </trkpt>
      <trkpt lat="-16.49536" lon="-151.72269">
        <ele>15.03772</ele>
        <time>2012-05-16T01:56:30Z</time>
      </trkpt>
      <trkpt lat="-16.49597" lon="-151.72205">
        <ele>14.076416</ele>
        <time>2012-05-16T01:56:48Z</time>
      </trkpt>
      <trkpt lat="-16.49647" lon="-151.72148">
        <ele>14.557007</ele>
        <time>2012-05-16T01:57:04Z</time>
      </trkpt>
      <trkpt lat="-16.49712" lon="-151.72111">
        <ele>15.03772</ele>
        <time>2012-05-16T01:57:21Z</time>
      </trkpt>
      <trkpt lat="-16.49732" lon="-151.72101">
        <ele>15.03772</ele>
        <time>2012-05-16T01:57:26Z</time>
      </trkpt>
      <trkpt lat="-16.4975" lon="-151.72101">
        <ele>14.557007</ele>
        <time>2012-05-16T01:57:30Z</time>
      </trkpt>
      <trkpt lat="-16.49833" lon="-151.72128">
        <ele>14.076416</ele>
        <time>2012-05-16T01:57:49Z</time>
      </trkpt>
      <trkpt lat="-16.49903" lon="-151.72138">
        <ele>14.076416</ele>
        <time>2012-05-16T01:58:04Z</time>
      </trkpt>
      <trkpt lat="-16.49973" lon="-151.72134">
        <ele>14.557007</ele>
        <time>2012-05-16T01:58:20Z</time>
      </trkpt>
      <trkpt lat="-16.50006" lon="-151.72125">
        <ele>15.03772</ele>
        <time>2012-05-16T01:58:28Z</time>
      </trkpt>
      <trkpt lat="-16.50009" lon="-151.72124">
        <ele>14.557007</ele>
        <time>2012-05-16T01:58:29Z</time>
      </trkpt>
      <trkpt lat="-16.50022" lon="-151.72121">
        <ele>14.557007</ele>
        <time>2012-05-16T01:58:32Z</time>
      </trkpt>
      <trkpt lat="-16.501" lon="-151.72099">
        <ele>15.03772</ele>
        <time>2012-05-16T01:58:51Z</time>
      </trkpt>
      <trkpt lat="-16.50195" lon="-151.72073">
        <ele>14.557007</ele>
        <time>2012-05-16T01:59:14Z</time>
      </trkpt>
      <trkpt lat="-16.50238" lon="-151.72065">
        <ele>15.03772</ele>
        <time>2012-05-16T01:59:24Z</time>
      </trkpt>
      <trkpt lat="-16.50251" lon="-151.72065">
        <ele>15.03772</ele>
        <time>2012-05-16T01:59:27Z</time>
      </trkpt>
      <trkpt lat="-16.50275" lon="-151.72077">
        <ele>14.557007</ele>
        <time>2012-05-16T01:59:33Z</time>
      </trkpt>
      <trkpt lat="-16.50325" lon="-151.72121">
        <ele>14.557007</ele>
        <time>2012-05-16T01:59:50Z</time>
      </trkpt>
      <trkpt lat="-16.50375" lon="-151.72158">
        <ele>14.557007</ele>
        <time>2012-05-16T02:00:05Z</time>
      </trkpt>
      <trkpt lat="-16.5044" lon="-151.72189">
        <ele>14.076416</ele>
        <time>2012-05-16T02:00:22Z</time>
      </trkpt>
      <trkpt lat="-16.50481" lon="-151.72203">
        <ele>14.076416</ele>
        <time>2012-05-16T02:00:37Z</time>
      </trkpt>
      <trkpt lat="-16.50501" lon="-151.72207">
        <ele>15.03772</ele>
        <time>2012-05-16T02:00:51Z</time>
      </trkpt>
      <trkpt lat="-16.50515" lon="-151.72211">
        <ele>15.518433</ele>
        <time>2012-05-16T02:00:54Z</time>
      </trkpt>
      <trkpt lat="-16.50526" lon="-151.72213">
        <ele>14.076416</ele>
        <time>2012-05-16T02:00:56Z</time>
      </trkpt>
      <trkpt lat="-16.50607" lon="-151.72212">
        <ele>14.557007</ele>
        <time>2012-05-16T02:01:12Z</time>
      </trkpt>
      <trkpt lat="-16.50623" lon="-151.72213">
        <ele>15.03772</ele>
        <time>2012-05-16T02:01:15Z</time>
      </trkpt>
      <trkpt lat="-16.50646" lon="-151.72224">
        <ele>14.557007</ele>
        <time>2012-05-16T02:01:20Z</time>
      </trkpt>
      <trkpt lat="-16.5071" lon="-151.72274">
        <ele>14.557007</ele>
        <time>2012-05-16T02:01:35Z</time>
      </trkpt>
      <trkpt lat="-16.5073" lon="-151.72279">
        <ele>14.557007</ele>
        <time>2012-05-16T02:01:39Z</time>
      </trkpt>
      <trkpt lat="-16.50823" lon="-151.72292">
        <ele>14.557007</ele>
        <time>2012-05-16T02:02:00Z</time>
      </trkpt>
      <trkpt lat="-16.50897" lon="-151.72291">
        <ele>14.557007</ele>
        <time>2012-05-16T02:02:18Z</time>
      </trkpt>
      <trkpt lat="-16.50985" lon="-151.72277">
        <ele>13.595825</ele>
        <time>2012-05-16T02:02:39Z</time>
      </trkpt>
      <trkpt lat="-16.51044" lon="-151.72264">
        <ele>13.595825</ele>
        <time>2012-05-16T02:02:52Z</time>
      </trkpt>
      <trkpt lat="-16.5113" lon="-151.72234">
        <ele>14.076416</ele>
        <time>2012-05-16T02:03:11Z</time>
      </trkpt>
      <trkpt lat="-16.51151" lon="-151.72222">
        <ele>14.076416</ele>
        <time>2012-05-16T02:03:16Z</time>
      </trkpt>
      <trkpt lat="-16.51174" lon="-151.72204">
        <ele>14.076416</ele>
        <time>2012-05-16T02:03:22Z</time>
      </trkpt>
      <trkpt lat="-16.51197" lon="-151.72179">
        <ele>14.557007</ele>
        <time>2012-05-16T02:03:29Z</time>
      </trkpt>
      <trkpt lat="-16.51224" lon="-151.72115">
        <ele>14.076416</ele>
        <time>2012-05-16T02:03:43Z</time>
      </trkpt>
      <trkpt lat="-16.5126" lon="-151.72098">
        <ele>14.076416</ele>
        <time>2012-05-16T02:03:52Z</time>
      </trkpt>
      <trkpt lat="-16.51317" lon="-151.72111">
        <ele>14.557007</ele>
        <time>2012-05-16T02:04:04Z</time>
      </trkpt>
      <trkpt lat="-16.51402" lon="-151.72122">
        <ele>13.595825</ele>
        <time>2012-05-16T02:04:22Z</time>
      </trkpt>
      <trkpt lat="-16.51482" lon="-151.7212">
        <ele>13.595825</ele>
        <time>2012-05-16T02:04:39Z</time>
      </trkpt>
      <trkpt lat="-16.51487" lon="-151.7212">
        <ele>14.557007</ele>
        <time>2012-05-16T02:04:40Z</time>
      </trkpt>
      <trkpt lat="-16.51585" lon="-151.72103">
        <ele>15.03772</ele>
        <time>2012-05-16T02:05:00Z</time>
      </trkpt>
      <trkpt lat="-16.51604" lon="-151.721">
        <ele>14.557007</ele>
        <time>2012-05-16T02:05:04Z</time>
      </trkpt>
      <trkpt lat="-16.51686" lon="-151.72082">
        <ele>14.557007</ele>
        <time>2012-05-16T02:05:21Z</time>
      </trkpt>
      <trkpt lat="-16.51788" lon="-151.72052">
        <ele>15.03772</ele>
        <time>2012-05-16T02:05:42Z</time>
      </trkpt>
      <trkpt lat="-16.51826" lon="-151.72041">
        <ele>15.03772</ele>
        <time>2012-05-16T02:05:50Z</time>
      </trkpt>
      <trkpt lat="-16.51873" lon="-151.72059">
        <ele>15.03772</ele>
        <time>2012-05-16T02:06:01Z</time>
      </trkpt>
      <trkpt lat="-16.5188" lon="-151.72079">
        <ele>14.557007</ele>
        <time>2012-05-16T02:06:05Z</time>
      </trkpt>
      <trkpt lat="-16.51898" lon="-151.72168">
        <ele>15.03772</ele>
        <time>2012-05-16T02:06:22Z</time>
      </trkpt>
      <trkpt lat="-16.51925" lon="-151.72245">
        <ele>14.557007</ele>
        <time>2012-05-16T02:06:38Z</time>
      </trkpt>
      <trkpt lat="-16.51928" lon="-151.7225">
        <ele>14.076416</ele>
        <time>2012-05-16T02:06:39Z</time>
      </trkpt>
      <trkpt lat="-16.51972" lon="-151.7233">
        <ele>14.076416</ele>
        <time>2012-05-16T02:06:57Z</time>
      </trkpt>
      <trkpt lat="-16.52016" lon="-151.724">
        <ele>14.557007</ele>
        <time>2012-05-16T02:07:14Z</time>
      </trkpt>
      <trkpt lat="-16.5203" lon="-151.72418">
        <ele>14.076416</ele>
        <time>2012-05-16T02:07:19Z</time>
      </trkpt>
      <trkpt lat="-16.52043" lon="-151.72431">
        <ele>14.076416</ele>
        <time>2012-05-16T02:07:23Z</time>
      </trkpt>
      <trkpt lat="-16.52127" lon="-151.72494">
        <ele>13.595825</ele>
        <time>2012-05-16T02:07:44Z</time>
      </trkpt>
      <trkpt lat="-16.52197" lon="-151.7254">
        <ele>14.557007</ele>
        <time>2012-05-16T02:08:01Z</time>
      </trkpt>
      <trkpt lat="-16.5221" lon="-151.72546">
        <ele>14.557007</ele>
        <time>2012-05-16T02:08:04Z</time>
      </trkpt>
      <trkpt lat="-16.52243" lon="-151.72559">
        <ele>14.076416</ele>
        <time>2012-05-16T02:08:11Z</time>
      </trkpt>
      <trkpt lat="-16.52271" lon="-151.72567">
        <ele>14.076416</ele>
        <time>2012-05-16T02:08:17Z</time>
      </trkpt>
      <trkpt lat="-16.52366" lon="-151.72574">
        <ele>14.076416</ele>
        <time>2012-05-16T02:08:36Z</time>
      </trkpt>
      <trkpt lat="-16.52456" lon="-151.7257">
        <ele>14.557007</ele>
        <time>2012-05-16T02:08:54Z</time>
      </trkpt>
      <trkpt lat="-16.52543" lon="-151.72553">
        <ele>15.518433</ele>
        <time>2012-05-16T02:09:12Z</time>
      </trkpt>
      <trkpt lat="-16.5264" lon="-151.72526">
        <ele>14.557007</ele>
        <time>2012-05-16T02:09:33Z</time>
      </trkpt>
      <trkpt lat="-16.52668" lon="-151.7252">
        <ele>15.518433</ele>
        <time>2012-05-16T02:09:39Z</time>
      </trkpt>
      <trkpt lat="-16.52696" lon="-151.72525">
        <ele>15.999023</ele>
        <time>2012-05-16T02:09:45Z</time>
      </trkpt>
      <trkpt lat="-16.52714" lon="-151.72533">
        <ele>16.479736</ele>
        <time>2012-05-16T02:09:49Z</time>
      </trkpt>
      <trkpt lat="-16.52748" lon="-151.72573">
        <ele>20.324951</ele>
        <time>2012-05-16T02:10:03Z</time>
      </trkpt>
      <trkpt lat="-16.52749" lon="-151.72576">
        <ele>20.324951</ele>
        <time>2012-05-16T02:10:04Z</time>
      </trkpt>
      <trkpt lat="-16.52747" lon="-151.72619">
        <ele>22.247559</ele>
        <time>2012-05-16T02:10:17Z</time>
      </trkpt>
      <trkpt lat="-16.5273" lon="-151.72671">
        <ele>22.728271</ele>
        <time>2012-05-16T02:10:32Z</time>
      </trkpt>
      <trkpt lat="-16.5272" lon="-151.72706">
        <ele>23.208984</ele>
        <time>2012-05-16T02:10:42Z</time>
      </trkpt>
      <trkpt lat="-16.52715" lon="-151.72763">
        <ele>23.689575</ele>
        <time>2012-05-16T02:10:57Z</time>
      </trkpt>
      <trkpt lat="-16.52714" lon="-151.72771">
        <ele>23.208984</ele>
        <time>2012-05-16T02:10:59Z</time>
      </trkpt>
      <trkpt lat="-16.52716" lon="-151.72825">
        <ele>23.689575</ele>
        <time>2012-05-16T02:11:13Z</time>
      </trkpt>
      <trkpt lat="-16.52717" lon="-151.72864">
        <ele>24.170288</ele>
        <time>2012-05-16T02:11:23Z</time>
      </trkpt>
      <trkpt lat="-16.52742" lon="-151.72905">
        <ele>25.131714</ele>
        <time>2012-05-16T02:11:35Z</time>
      </trkpt>
      <trkpt lat="-16.52763" lon="-151.72929">
        <ele>24.651001</ele>
        <time>2012-05-16T02:11:42Z</time>
      </trkpt>
      <trkpt lat="-16.52793" lon="-151.72971">
        <ele>24.170288</ele>
        <time>2012-05-16T02:11:53Z</time>
      </trkpt>
      <trkpt lat="-16.528" lon="-151.72982">
        <ele>24.170288</ele>
        <time>2012-05-16T02:11:56Z</time>
      </trkpt>
      <trkpt lat="-16.52805" lon="-151.72989">
        <ele>24.170288</ele>
        <time>2012-05-16T02:11:58Z</time>
      </trkpt>
      <trkpt lat="-16.52828" lon="-151.73023">
        <ele>23.208984</ele>
        <time>2012-05-16T02:12:06Z</time>
      </trkpt>
      <trkpt lat="-16.52839" lon="-151.73038">
        <ele>22.728271</ele>
        <time>2012-05-16T02:12:10Z</time>
      </trkpt>
      <trkpt lat="-16.52892" lon="-151.7307">
        <ele>21.766968</ele>
        <time>2012-05-16T02:12:21Z</time>
      </trkpt>
      <trkpt lat="-16.52918" lon="-151.73073">
        <ele>21.286377</ele>
        <time>2012-05-16T02:12:26Z</time>
      </trkpt>
      <trkpt lat="-16.52998" lon="-151.73043">
        <ele>18.883057</ele>
        <time>2012-05-16T02:12:42Z</time>
      </trkpt>
      <trkpt lat="-16.53041" lon="-151.73017">
        <ele>19.36377</ele>
        <time>2012-05-16T02:12:50Z</time>
      </trkpt>
      <trkpt lat="-16.53065" lon="-151.73006">
        <ele>18.402344</ele>
        <time>2012-05-16T02:12:54Z</time>
      </trkpt>
      <trkpt lat="-16.53077" lon="-151.73001">
        <ele>17.441162</ele>
        <time>2012-05-16T02:12:56Z</time>
      </trkpt>
      <trkpt lat="-16.53125" lon="-151.72982">
        <ele>17.441162</ele>
        <time>2012-05-16T02:13:04Z</time>
      </trkpt>
      <trkpt lat="-16.53144" lon="-151.72978">
        <ele>15.999023</ele>
        <time>2012-05-16T02:13:08Z</time>
      </trkpt>
      <trkpt lat="-16.53186" lon="-151.72987">
        <ele>15.03772</ele>
        <time>2012-05-16T02:13:19Z</time>
      </trkpt>
      <trkpt lat="-16.53198" lon="-151.72997">
        <ele>15.518433</ele>
        <time>2012-05-16T02:13:22Z</time>
      </trkpt>
      <trkpt lat="-16.53215" lon="-151.73038">
        <ele>15.03772</ele>
        <time>2012-05-16T02:13:30Z</time>
      </trkpt>
      <trkpt lat="-16.53214" lon="-151.73117">
        <ele>15.03772</ele>
        <time>2012-05-16T02:13:44Z</time>
      </trkpt>
      <trkpt lat="-16.53207" lon="-151.73168">
        <ele>14.557007</ele>
        <time>2012-05-16T02:13:54Z</time>
      </trkpt>
      <trkpt lat="-16.53184" lon="-151.73239">
        <ele>15.518433</ele>
        <time>2012-05-16T02:14:09Z</time>
      </trkpt>
      <trkpt lat="-16.53178" lon="-151.73263">
        <ele>15.518433</ele>
        <time>2012-05-16T02:14:14Z</time>
      </trkpt>
      <trkpt lat="-16.53178" lon="-151.73272">
        <ele>15.518433</ele>
        <time>2012-05-16T02:14:16Z</time>
      </trkpt>
      <trkpt lat="-16.53182" lon="-151.73291">
        <ele>15.518433</ele>
        <time>2012-05-16T02:14:20Z</time>
      </trkpt>
      <trkpt lat="-16.53191" lon="-151.73375">
        <ele>15.999023</ele>
        <time>2012-05-16T02:14:36Z</time>
      </trkpt>
      <trkpt lat="-16.53199" lon="-151.73399">
        <ele>15.999023</ele>
        <time>2012-05-16T02:14:41Z</time>
      </trkpt>
      <trkpt lat="-16.53223" lon="-151.73441">
        <ele>15.999023</ele>
        <time>2012-05-16T02:14:51Z</time>
      </trkpt>
      <trkpt lat="-16.53233" lon="-151.73458">
        <ele>15.518433</ele>
        <time>2012-05-16T02:14:55Z</time>
      </trkpt>
      <trkpt lat="-16.53251" lon="-151.73483">
        <ele>15.03772</ele>
        <time>2012-05-16T02:15:01Z</time>
      </trkpt>
      <trkpt lat="-16.533" lon="-151.73526">
        <ele>15.03772</ele>
        <time>2012-05-16T02:15:15Z</time>
      </trkpt>
      <trkpt lat="-16.53366" lon="-151.73551">
        <ele>14.557007</ele>
        <time>2012-05-16T02:15:30Z</time>
      </trkpt>
      <trkpt lat="-16.53419" lon="-151.73563">
        <ele>15.518433</ele>
        <time>2012-05-16T02:15:43Z</time>
      </trkpt>
      <trkpt lat="-16.53484" lon="-151.73584">
        <ele>15.03772</ele>
        <time>2012-05-16T02:15:59Z</time>
      </trkpt>
      <trkpt lat="-16.53548" lon="-151.73598">
        <ele>15.518433</ele>
        <time>2012-05-16T02:16:16Z</time>
      </trkpt>
      <trkpt lat="-16.536" lon="-151.73603">
        <ele>15.518433</ele>
        <time>2012-05-16T02:16:30Z</time>
      </trkpt>
      <trkpt lat="-16.53655" lon="-151.73607">
        <ele>15.03772</ele>
        <time>2012-05-16T02:16:44Z</time>
      </trkpt>
      <trkpt lat="-16.53687" lon="-151.73609">
        <ele>15.518433</ele>
        <time>2012-05-16T02:16:52Z</time>
      </trkpt>
      <trkpt lat="-16.53758" lon="-151.73621">
        <ele>15.03772</ele>
        <time>2012-05-16T02:17:10Z</time>
      </trkpt>
      <trkpt lat="-16.53807" lon="-151.73627">
        <ele>15.03772</ele>
        <time>2012-05-16T02:17:23Z</time>
      </trkpt>
      <trkpt lat="-16.53871" lon="-151.73632">
        <ele>14.557007</ele>
        <time>2012-05-16T02:17:38Z</time>
      </trkpt>
      <trkpt lat="-16.53932" lon="-151.73631">
        <ele>14.076416</ele>
        <time>2012-05-16T02:17:53Z</time>
      </trkpt>
      <trkpt lat="-16.53989" lon="-151.73631">
        <ele>14.557007</ele>
        <time>2012-05-16T02:18:08Z</time>
      </trkpt>
      <trkpt lat="-16.54042" lon="-151.73645">
        <ele>14.557007</ele>
        <time>2012-05-16T02:18:21Z</time>
      </trkpt>
      <trkpt lat="-16.54084" lon="-151.73673">
        <ele>14.557007</ele>
        <time>2012-05-16T02:18:35Z</time>
      </trkpt>
      <trkpt lat="-16.54093" lon="-151.73684">
        <ele>14.557007</ele>
        <time>2012-05-16T02:18:48Z</time>
      </trkpt>
      <trkpt lat="-16.54091" lon="-151.73682">
        <ele>14.557007</ele>
        <time>2012-05-16T02:19:05Z</time>
      </trkpt>
      <trkpt lat="-16.54088" lon="-151.73681">
        <ele>14.557007</ele>
        <time>2012-05-16T02:19:21Z</time>
      </trkpt>
      <trkpt lat="-16.54089" lon="-151.73683">
        <ele>15.03772</ele>
        <time>2012-05-16T02:19:43Z</time>
      </trkpt>
    </trkseg>
  </trk>
</gpx>